<?xml version="1.0" encoding="UTF-8" standalone="no" ?>
<gpx xmlns="http://www.topografix.com/GPX/1/1" xmlns:xsi="http://www.w3.org/2001/XMLSchema-instance" xsi:schemaLocation="http://www.topografix.com/GPX/1/1 http://www.topografix.com/GPX/1/1/gpx.xsd" version="1.1" creator="VisuGPX - https://www.visugpx.com">
  <metadata>
    <name>Rando La Bourgonce</name>
    <desc><![CDATA[Promenade avec E&S de Ste Marguerite, Merci à Serge]]></desc>
  </metadata>
  <trk>
    <name><![CDATA[2018-01-29 16:28:23]]></name>
    <trkseg>
      <trkpt lat="48.30351" lon="6.80093">
        <ele>411.58</ele>
        <time>2018-01-29T13:02:45Z</time>
      </trkpt>
      <trkpt lat="48.30356" lon="6.80092">
        <ele>413.98</ele>
        <time>2018-01-29T13:03:22Z</time>
      </trkpt>
      <trkpt lat="48.30351" lon="6.80093">
        <ele>410.62</ele>
        <time>2018-01-29T13:03:45Z</time>
      </trkpt>
      <trkpt lat="48.30351" lon="6.8009">
        <ele>412.06</ele>
        <time>2018-01-29T13:04:03Z</time>
      </trkpt>
      <trkpt lat="48.30349" lon="6.80088">
        <ele>409.18</ele>
        <time>2018-01-29T13:04:38Z</time>
      </trkpt>
      <trkpt lat="48.30347" lon="6.80086">
        <ele>410.62</ele>
        <time>2018-01-29T13:05:02Z</time>
      </trkpt>
      <trkpt lat="48.30349" lon="6.80089">
        <ele>409.66</ele>
        <time>2018-01-29T13:05:24Z</time>
      </trkpt>
      <trkpt lat="48.3035" lon="6.80095">
        <ele>412.06</ele>
        <time>2018-01-29T13:05:52Z</time>
      </trkpt>
      <trkpt lat="48.30351" lon="6.80104">
        <ele>411.58</ele>
        <time>2018-01-29T13:06:03Z</time>
      </trkpt>
      <trkpt lat="48.30351" lon="6.80106">
        <ele>411.58</ele>
        <time>2018-01-29T13:06:05Z</time>
      </trkpt>
      <trkpt lat="48.30352" lon="6.80111">
        <ele>411.1</ele>
        <time>2018-01-29T13:06:08Z</time>
      </trkpt>
      <trkpt lat="48.30354" lon="6.80129">
        <ele>408.22</ele>
        <time>2018-01-29T13:06:21Z</time>
      </trkpt>
      <trkpt lat="48.30357" lon="6.80149">
        <ele>408.22</ele>
        <time>2018-01-29T13:06:34Z</time>
      </trkpt>
      <trkpt lat="48.30357" lon="6.80155">
        <ele>408.7</ele>
        <time>2018-01-29T13:06:37Z</time>
      </trkpt>
      <trkpt lat="48.30357" lon="6.80158">
        <ele>409.66</ele>
        <time>2018-01-29T13:06:39Z</time>
      </trkpt>
      <trkpt lat="48.30359" lon="6.80166">
        <ele>412.06</ele>
        <time>2018-01-29T13:06:44Z</time>
      </trkpt>
      <trkpt lat="48.30361" lon="6.80188">
        <ele>410.62</ele>
        <time>2018-01-29T13:06:57Z</time>
      </trkpt>
      <trkpt lat="48.3036" lon="6.80195">
        <ele>410.14</ele>
        <time>2018-01-29T13:07:02Z</time>
      </trkpt>
      <trkpt lat="48.30361" lon="6.80208">
        <ele>408.22</ele>
        <time>2018-01-29T13:07:10Z</time>
      </trkpt>
      <trkpt lat="48.30358" lon="6.80226">
        <ele>404.85</ele>
        <time>2018-01-29T13:07:20Z</time>
      </trkpt>
      <trkpt lat="48.30356" lon="6.80245">
        <ele>403.89</ele>
        <time>2018-01-29T13:07:33Z</time>
      </trkpt>
      <trkpt lat="48.30353" lon="6.80262">
        <ele>406.29</ele>
        <time>2018-01-29T13:07:43Z</time>
      </trkpt>
      <trkpt lat="48.30351" lon="6.8027">
        <ele>407.74</ele>
        <time>2018-01-29T13:07:48Z</time>
      </trkpt>
      <trkpt lat="48.30349" lon="6.80281">
        <ele>407.74</ele>
        <time>2018-01-29T13:07:54Z</time>
      </trkpt>
      <trkpt lat="48.30349" lon="6.80286">
        <ele>408.22</ele>
        <time>2018-01-29T13:07:58Z</time>
      </trkpt>
      <trkpt lat="48.30345" lon="6.80309">
        <ele>409.18</ele>
        <time>2018-01-29T13:08:12Z</time>
      </trkpt>
      <trkpt lat="48.30343" lon="6.80315">
        <ele>410.14</ele>
        <time>2018-01-29T13:08:17Z</time>
      </trkpt>
      <trkpt lat="48.30338" lon="6.80333">
        <ele>410.14</ele>
        <time>2018-01-29T13:08:29Z</time>
      </trkpt>
      <trkpt lat="48.30333" lon="6.8035">
        <ele>413.02</ele>
        <time>2018-01-29T13:08:42Z</time>
      </trkpt>
      <trkpt lat="48.30327" lon="6.8037">
        <ele>414.47</ele>
        <time>2018-01-29T13:08:55Z</time>
      </trkpt>
      <trkpt lat="48.30319" lon="6.80387">
        <ele>413.5</ele>
        <time>2018-01-29T13:09:07Z</time>
      </trkpt>
      <trkpt lat="48.3031" lon="6.80405">
        <ele>413.02</ele>
        <time>2018-01-29T13:09:20Z</time>
      </trkpt>
      <trkpt lat="48.30309" lon="6.80407">
        <ele>413.5</ele>
        <time>2018-01-29T13:09:22Z</time>
      </trkpt>
      <trkpt lat="48.30306" lon="6.80411">
        <ele>413.5</ele>
        <time>2018-01-29T13:09:25Z</time>
      </trkpt>
      <trkpt lat="48.30296" lon="6.80425">
        <ele>413.02</ele>
        <time>2018-01-29T13:09:39Z</time>
      </trkpt>
      <trkpt lat="48.30285" lon="6.80429">
        <ele>412.54</ele>
        <time>2018-01-29T13:09:50Z</time>
      </trkpt>
      <trkpt lat="48.30283" lon="6.80429">
        <ele>412.06</ele>
        <time>2018-01-29T13:09:52Z</time>
      </trkpt>
      <trkpt lat="48.30278" lon="6.80428">
        <ele>411.58</ele>
        <time>2018-01-29T13:09:56Z</time>
      </trkpt>
      <trkpt lat="48.30265" lon="6.80422">
        <ele>410.62</ele>
        <time>2018-01-29T13:10:09Z</time>
      </trkpt>
      <trkpt lat="48.30262" lon="6.80419">
        <ele>409.66</ele>
        <time>2018-01-29T13:10:13Z</time>
      </trkpt>
      <trkpt lat="48.30256" lon="6.80414">
        <ele>408.22</ele>
        <time>2018-01-29T13:10:20Z</time>
      </trkpt>
      <trkpt lat="48.30248" lon="6.80407">
        <ele>408.22</ele>
        <time>2018-01-29T13:10:27Z</time>
      </trkpt>
      <trkpt lat="48.30247" lon="6.80406">
        <ele>408.22</ele>
        <time>2018-01-29T13:10:28Z</time>
      </trkpt>
      <trkpt lat="48.30244" lon="6.80403">
        <ele>407.74</ele>
        <time>2018-01-29T13:10:31Z</time>
      </trkpt>
      <trkpt lat="48.30241" lon="6.804">
        <ele>407.74</ele>
        <time>2018-01-29T13:10:35Z</time>
      </trkpt>
      <trkpt lat="48.30239" lon="6.80398">
        <ele>407.74</ele>
        <time>2018-01-29T13:10:37Z</time>
      </trkpt>
      <trkpt lat="48.30228" lon="6.80388">
        <ele>408.22</ele>
        <time>2018-01-29T13:10:48Z</time>
      </trkpt>
      <trkpt lat="48.30226" lon="6.80386">
        <ele>407.74</ele>
        <time>2018-01-29T13:10:50Z</time>
      </trkpt>
      <trkpt lat="48.30219" lon="6.80381">
        <ele>407.26</ele>
        <time>2018-01-29T13:10:58Z</time>
      </trkpt>
      <trkpt lat="48.30208" lon="6.80383">
        <ele>407.74</ele>
        <time>2018-01-29T13:11:10Z</time>
      </trkpt>
      <trkpt lat="48.30199" lon="6.80392">
        <ele>408.22</ele>
        <time>2018-01-29T13:11:22Z</time>
      </trkpt>
      <trkpt lat="48.30192" lon="6.804">
        <ele>409.66</ele>
        <time>2018-01-29T13:11:32Z</time>
      </trkpt>
      <trkpt lat="48.30185" lon="6.80408">
        <ele>410.62</ele>
        <time>2018-01-29T13:11:41Z</time>
      </trkpt>
      <trkpt lat="48.30174" lon="6.80416">
        <ele>412.06</ele>
        <time>2018-01-29T13:11:54Z</time>
      </trkpt>
      <trkpt lat="48.30164" lon="6.80427">
        <ele>413.98</ele>
        <time>2018-01-29T13:12:04Z</time>
      </trkpt>
      <trkpt lat="48.30162" lon="6.8043">
        <ele>413.98</ele>
        <time>2018-01-29T13:12:07Z</time>
      </trkpt>
      <trkpt lat="48.30155" lon="6.80439">
        <ele>415.91</ele>
        <time>2018-01-29T13:12:18Z</time>
      </trkpt>
      <trkpt lat="48.30153" lon="6.80441">
        <ele>415.91</ele>
        <time>2018-01-29T13:12:20Z</time>
      </trkpt>
      <trkpt lat="48.3014" lon="6.80455">
        <ele>416.39</ele>
        <time>2018-01-29T13:12:32Z</time>
      </trkpt>
      <trkpt lat="48.3013" lon="6.80468">
        <ele>414.95</ele>
        <time>2018-01-29T13:12:44Z</time>
      </trkpt>
      <trkpt lat="48.30123" lon="6.80479">
        <ele>413.98</ele>
        <time>2018-01-29T13:12:58Z</time>
      </trkpt>
      <trkpt lat="48.30116" lon="6.80491">
        <ele>413.5</ele>
        <time>2018-01-29T13:13:09Z</time>
      </trkpt>
      <trkpt lat="48.30105" lon="6.80501">
        <ele>414.47</ele>
        <time>2018-01-29T13:13:20Z</time>
      </trkpt>
      <trkpt lat="48.30095" lon="6.80504">
        <ele>413.5</ele>
        <time>2018-01-29T13:13:32Z</time>
      </trkpt>
      <trkpt lat="48.30083" lon="6.80505">
        <ele>410.14</ele>
        <time>2018-01-29T13:13:44Z</time>
      </trkpt>
      <trkpt lat="48.30068" lon="6.80501">
        <ele>406.29</ele>
        <time>2018-01-29T13:13:56Z</time>
      </trkpt>
      <trkpt lat="48.30055" lon="6.80501">
        <ele>402.45</ele>
        <time>2018-01-29T13:14:08Z</time>
      </trkpt>
      <trkpt lat="48.30044" lon="6.80495">
        <ele>401.01</ele>
        <time>2018-01-29T13:14:20Z</time>
      </trkpt>
      <trkpt lat="48.3003" lon="6.80492">
        <ele>398.12</ele>
        <time>2018-01-29T13:14:34Z</time>
      </trkpt>
      <trkpt lat="48.30017" lon="6.80489">
        <ele>398.6</ele>
        <time>2018-01-29T13:14:47Z</time>
      </trkpt>
      <trkpt lat="48.30004" lon="6.80492">
        <ele>399.08</ele>
        <time>2018-01-29T13:15:01Z</time>
      </trkpt>
      <trkpt lat="48.29993" lon="6.80494">
        <ele>404.37</ele>
        <time>2018-01-29T13:15:14Z</time>
      </trkpt>
      <trkpt lat="48.2998" lon="6.80503">
        <ele>409.18</ele>
        <time>2018-01-29T13:15:29Z</time>
      </trkpt>
      <trkpt lat="48.29967" lon="6.80507">
        <ele>411.58</ele>
        <time>2018-01-29T13:15:43Z</time>
      </trkpt>
      <trkpt lat="48.29958" lon="6.80505">
        <ele>413.98</ele>
        <time>2018-01-29T13:15:54Z</time>
      </trkpt>
      <trkpt lat="48.29946" lon="6.805">
        <ele>412.06</ele>
        <time>2018-01-29T13:16:08Z</time>
      </trkpt>
      <trkpt lat="48.29928" lon="6.80507">
        <ele>413.02</ele>
        <time>2018-01-29T13:16:20Z</time>
      </trkpt>
      <trkpt lat="48.29916" lon="6.80505">
        <ele>415.43</ele>
        <time>2018-01-29T13:16:33Z</time>
      </trkpt>
      <trkpt lat="48.29902" lon="6.80502">
        <ele>416.87</ele>
        <time>2018-01-29T13:16:47Z</time>
      </trkpt>
      <trkpt lat="48.29899" lon="6.80501">
        <ele>416.39</ele>
        <time>2018-01-29T13:16:51Z</time>
      </trkpt>
      <trkpt lat="48.29892" lon="6.80503">
        <ele>414.95</ele>
        <time>2018-01-29T13:16:58Z</time>
      </trkpt>
      <trkpt lat="48.29881" lon="6.80494">
        <ele>416.87</ele>
        <time>2018-01-29T13:17:10Z</time>
      </trkpt>
      <trkpt lat="48.29866" lon="6.80496">
        <ele>417.83</ele>
        <time>2018-01-29T13:17:23Z</time>
      </trkpt>
      <trkpt lat="48.29855" lon="6.80487">
        <ele>423.6</ele>
        <time>2018-01-29T13:17:36Z</time>
      </trkpt>
      <trkpt lat="48.29849" lon="6.80478">
        <ele>426.48</ele>
        <time>2018-01-29T13:17:46Z</time>
      </trkpt>
      <trkpt lat="48.29843" lon="6.80472">
        <ele>426.96</ele>
        <time>2018-01-29T13:17:56Z</time>
      </trkpt>
      <trkpt lat="48.29834" lon="6.80461">
        <ele>428.4</ele>
        <time>2018-01-29T13:18:09Z</time>
      </trkpt>
      <trkpt lat="48.29824" lon="6.80458">
        <ele>427.44</ele>
        <time>2018-01-29T13:18:21Z</time>
      </trkpt>
      <trkpt lat="48.29814" lon="6.80449">
        <ele>427.44</ele>
        <time>2018-01-29T13:18:34Z</time>
      </trkpt>
      <trkpt lat="48.29813" lon="6.80447">
        <ele>427.44</ele>
        <time>2018-01-29T13:18:36Z</time>
      </trkpt>
      <trkpt lat="48.29802" lon="6.80434">
        <ele>428.89</ele>
        <time>2018-01-29T13:18:49Z</time>
      </trkpt>
      <trkpt lat="48.29793" lon="6.80425">
        <ele>427.44</ele>
        <time>2018-01-29T13:19:01Z</time>
      </trkpt>
      <trkpt lat="48.29787" lon="6.8042">
        <ele>426.96</ele>
        <time>2018-01-29T13:19:09Z</time>
      </trkpt>
      <trkpt lat="48.29781" lon="6.80411">
        <ele>429.37</ele>
        <time>2018-01-29T13:19:18Z</time>
      </trkpt>
      <trkpt lat="48.29774" lon="6.80399">
        <ele>432.73</ele>
        <time>2018-01-29T13:19:29Z</time>
      </trkpt>
      <trkpt lat="48.29769" lon="6.80386">
        <ele>435.61</ele>
        <time>2018-01-29T13:19:41Z</time>
      </trkpt>
      <trkpt lat="48.29767" lon="6.80375">
        <ele>436.58</ele>
        <time>2018-01-29T13:19:49Z</time>
      </trkpt>
      <trkpt lat="48.29766" lon="6.80363">
        <ele>437.54</ele>
        <time>2018-01-29T13:19:56Z</time>
      </trkpt>
      <trkpt lat="48.29765" lon="6.80346">
        <ele>437.06</ele>
        <time>2018-01-29T13:20:08Z</time>
      </trkpt>
      <trkpt lat="48.29765" lon="6.80339">
        <ele>437.54</ele>
        <time>2018-01-29T13:20:13Z</time>
      </trkpt>
      <trkpt lat="48.29755" lon="6.80325">
        <ele>441.38</ele>
        <time>2018-01-29T13:20:24Z</time>
      </trkpt>
      <trkpt lat="48.29746" lon="6.80316">
        <ele>442.34</ele>
        <time>2018-01-29T13:20:35Z</time>
      </trkpt>
      <trkpt lat="48.2974" lon="6.80313">
        <ele>447.15</ele>
        <time>2018-01-29T13:20:46Z</time>
      </trkpt>
      <trkpt lat="48.29731" lon="6.80319">
        <ele>450.52</ele>
        <time>2018-01-29T13:20:57Z</time>
      </trkpt>
      <trkpt lat="48.29719" lon="6.80322">
        <ele>451.96</ele>
        <time>2018-01-29T13:21:09Z</time>
      </trkpt>
      <trkpt lat="48.2971" lon="6.80318">
        <ele>450.03</ele>
        <time>2018-01-29T13:21:23Z</time>
      </trkpt>
      <trkpt lat="48.29704" lon="6.80308">
        <ele>450.52</ele>
        <time>2018-01-29T13:21:34Z</time>
      </trkpt>
      <trkpt lat="48.29693" lon="6.80294">
        <ele>452.44</ele>
        <time>2018-01-29T13:21:47Z</time>
      </trkpt>
      <trkpt lat="48.29684" lon="6.80285">
        <ele>452.92</ele>
        <time>2018-01-29T13:21:57Z</time>
      </trkpt>
      <trkpt lat="48.29677" lon="6.80279">
        <ele>453.88</ele>
        <time>2018-01-29T13:22:05Z</time>
      </trkpt>
      <trkpt lat="48.29671" lon="6.80268">
        <ele>454.36</ele>
        <time>2018-01-29T13:22:18Z</time>
      </trkpt>
      <trkpt lat="48.29671" lon="6.80266">
        <ele>455.8</ele>
        <time>2018-01-29T13:22:34Z</time>
      </trkpt>
      <trkpt lat="48.29674" lon="6.80271">
        <ele>459.65</ele>
        <time>2018-01-29T13:23:02Z</time>
      </trkpt>
      <trkpt lat="48.29677" lon="6.80275">
        <ele>464.93</ele>
        <time>2018-01-29T13:23:25Z</time>
      </trkpt>
      <trkpt lat="48.29682" lon="6.80274">
        <ele>467.82</ele>
        <time>2018-01-29T13:23:55Z</time>
      </trkpt>
      <trkpt lat="48.29681" lon="6.8027">
        <ele>469.74</ele>
        <time>2018-01-29T13:24:18Z</time>
      </trkpt>
      <trkpt lat="48.29688" lon="6.80273">
        <ele>477.43</ele>
        <time>2018-01-29T13:24:46Z</time>
      </trkpt>
      <trkpt lat="48.29686" lon="6.80272">
        <ele>480.32</ele>
        <time>2018-01-29T13:25:06Z</time>
      </trkpt>
      <trkpt lat="48.29677" lon="6.80265">
        <ele>475.51</ele>
        <time>2018-01-29T13:25:27Z</time>
      </trkpt>
      <trkpt lat="48.29671" lon="6.80263">
        <ele>473.59</ele>
        <time>2018-01-29T13:25:29Z</time>
      </trkpt>
      <trkpt lat="48.29659" lon="6.80242">
        <ele>467.82</ele>
        <time>2018-01-29T13:25:42Z</time>
      </trkpt>
      <trkpt lat="48.29655" lon="6.80222">
        <ele>463.01</ele>
        <time>2018-01-29T13:25:55Z</time>
      </trkpt>
      <trkpt lat="48.29653" lon="6.80206">
        <ele>457.72</ele>
        <time>2018-01-29T13:26:07Z</time>
      </trkpt>
      <trkpt lat="48.29651" lon="6.80193">
        <ele>452.92</ele>
        <time>2018-01-29T13:26:18Z</time>
      </trkpt>
      <trkpt lat="48.29652" lon="6.8018">
        <ele>452.44</ele>
        <time>2018-01-29T13:26:26Z</time>
      </trkpt>
      <trkpt lat="48.29652" lon="6.80173">
        <ele>452.44</ele>
        <time>2018-01-29T13:26:30Z</time>
      </trkpt>
      <trkpt lat="48.29654" lon="6.80155">
        <ele>452.44</ele>
        <time>2018-01-29T13:26:43Z</time>
      </trkpt>
      <trkpt lat="48.29656" lon="6.80144">
        <ele>451.96</ele>
        <time>2018-01-29T13:26:51Z</time>
      </trkpt>
      <trkpt lat="48.29654" lon="6.80125">
        <ele>455.32</ele>
        <time>2018-01-29T13:27:02Z</time>
      </trkpt>
      <trkpt lat="48.29654" lon="6.8012">
        <ele>456.28</ele>
        <time>2018-01-29T13:27:05Z</time>
      </trkpt>
      <trkpt lat="48.29654" lon="6.80114">
        <ele>457.24</ele>
        <time>2018-01-29T13:27:08Z</time>
      </trkpt>
      <trkpt lat="48.29654" lon="6.80098">
        <ele>460.13</ele>
        <time>2018-01-29T13:27:21Z</time>
      </trkpt>
      <trkpt lat="48.29654" lon="6.80085">
        <ele>456.76</ele>
        <time>2018-01-29T13:27:34Z</time>
      </trkpt>
      <trkpt lat="48.29657" lon="6.80067">
        <ele>455.8</ele>
        <time>2018-01-29T13:27:47Z</time>
      </trkpt>
      <trkpt lat="48.29655" lon="6.80056">
        <ele>454.36</ele>
        <time>2018-01-29T13:27:55Z</time>
      </trkpt>
      <trkpt lat="48.29654" lon="6.80053">
        <ele>454.36</ele>
        <time>2018-01-29T13:27:57Z</time>
      </trkpt>
      <trkpt lat="48.29651" lon="6.80049">
        <ele>454.36</ele>
        <time>2018-01-29T13:28:00Z</time>
      </trkpt>
      <trkpt lat="48.29647" lon="6.80044">
        <ele>455.32</ele>
        <time>2018-01-29T13:28:04Z</time>
      </trkpt>
      <trkpt lat="48.29642" lon="6.80043">
        <ele>455.8</ele>
        <time>2018-01-29T13:28:10Z</time>
      </trkpt>
      <trkpt lat="48.29629" lon="6.80047">
        <ele>456.28</ele>
        <time>2018-01-29T13:28:25Z</time>
      </trkpt>
      <trkpt lat="48.29624" lon="6.80048">
        <ele>456.76</ele>
        <time>2018-01-29T13:28:32Z</time>
      </trkpt>
      <trkpt lat="48.29613" lon="6.80056">
        <ele>458.21</ele>
        <time>2018-01-29T13:28:44Z</time>
      </trkpt>
      <trkpt lat="48.29597" lon="6.80073">
        <ele>463.97</ele>
        <time>2018-01-29T13:29:01Z</time>
      </trkpt>
      <trkpt lat="48.29588" lon="6.80083">
        <ele>468.78</ele>
        <time>2018-01-29T13:29:13Z</time>
      </trkpt>
      <trkpt lat="48.29581" lon="6.80095">
        <ele>469.74</ele>
        <time>2018-01-29T13:29:24Z</time>
      </trkpt>
      <trkpt lat="48.29572" lon="6.80103">
        <ele>470.22</ele>
        <time>2018-01-29T13:29:38Z</time>
      </trkpt>
      <trkpt lat="48.29572" lon="6.80104">
        <ele>469.74</ele>
        <time>2018-01-29T13:29:39Z</time>
      </trkpt>
      <trkpt lat="48.29557" lon="6.80115">
        <ele>468.3</ele>
        <time>2018-01-29T13:29:53Z</time>
      </trkpt>
      <trkpt lat="48.29548" lon="6.80123">
        <ele>467.34</ele>
        <time>2018-01-29T13:30:03Z</time>
      </trkpt>
      <trkpt lat="48.29545" lon="6.80126">
        <ele>468.3</ele>
        <time>2018-01-29T13:30:08Z</time>
      </trkpt>
      <trkpt lat="48.29541" lon="6.8013">
        <ele>469.26</ele>
        <time>2018-01-29T13:30:13Z</time>
      </trkpt>
      <trkpt lat="48.29527" lon="6.80135">
        <ele>469.26</ele>
        <time>2018-01-29T13:30:25Z</time>
      </trkpt>
      <trkpt lat="48.29514" lon="6.80127">
        <ele>468.78</ele>
        <time>2018-01-29T13:30:39Z</time>
      </trkpt>
      <trkpt lat="48.295" lon="6.80112">
        <ele>469.74</ele>
        <time>2018-01-29T13:30:54Z</time>
      </trkpt>
      <trkpt lat="48.29493" lon="6.80099">
        <ele>467.34</ele>
        <time>2018-01-29T13:31:05Z</time>
      </trkpt>
      <trkpt lat="48.2948" lon="6.80089">
        <ele>464.93</ele>
        <time>2018-01-29T13:31:19Z</time>
      </trkpt>
      <trkpt lat="48.29472" lon="6.80075">
        <ele>462.53</ele>
        <time>2018-01-29T13:31:32Z</time>
      </trkpt>
      <trkpt lat="48.29464" lon="6.80062">
        <ele>462.53</ele>
        <time>2018-01-29T13:31:45Z</time>
      </trkpt>
      <trkpt lat="48.29455" lon="6.80045">
        <ele>463.01</ele>
        <time>2018-01-29T13:31:59Z</time>
      </trkpt>
      <trkpt lat="48.29451" lon="6.80038">
        <ele>463.01</ele>
        <time>2018-01-29T13:32:03Z</time>
      </trkpt>
      <trkpt lat="48.29443" lon="6.80021">
        <ele>463.01</ele>
        <time>2018-01-29T13:32:17Z</time>
      </trkpt>
      <trkpt lat="48.29435" lon="6.80004">
        <ele>463.01</ele>
        <time>2018-01-29T13:32:31Z</time>
      </trkpt>
      <trkpt lat="48.29428" lon="6.79989">
        <ele>463.01</ele>
        <time>2018-01-29T13:32:44Z</time>
      </trkpt>
      <trkpt lat="48.29421" lon="6.79969">
        <ele>463.49</ele>
        <time>2018-01-29T13:32:58Z</time>
      </trkpt>
      <trkpt lat="48.29416" lon="6.79952">
        <ele>463.01</ele>
        <time>2018-01-29T13:33:10Z</time>
      </trkpt>
      <trkpt lat="48.29411" lon="6.79932">
        <ele>463.01</ele>
        <time>2018-01-29T13:33:23Z</time>
      </trkpt>
      <trkpt lat="48.2941" lon="6.79928">
        <ele>463.01</ele>
        <time>2018-01-29T13:33:27Z</time>
      </trkpt>
      <trkpt lat="48.29408" lon="6.79911">
        <ele>462.53</ele>
        <time>2018-01-29T13:33:39Z</time>
      </trkpt>
      <trkpt lat="48.29402" lon="6.79889">
        <ele>463.01</ele>
        <time>2018-01-29T13:33:53Z</time>
      </trkpt>
      <trkpt lat="48.29401" lon="6.79872">
        <ele>463.01</ele>
        <time>2018-01-29T13:34:04Z</time>
      </trkpt>
      <trkpt lat="48.29398" lon="6.79856">
        <ele>463.01</ele>
        <time>2018-01-29T13:34:14Z</time>
      </trkpt>
      <trkpt lat="48.29396" lon="6.79839">
        <ele>462.53</ele>
        <time>2018-01-29T13:34:27Z</time>
      </trkpt>
      <trkpt lat="48.29395" lon="6.7982">
        <ele>462.53</ele>
        <time>2018-01-29T13:34:39Z</time>
      </trkpt>
      <trkpt lat="48.29391" lon="6.798">
        <ele>463.01</ele>
        <time>2018-01-29T13:34:52Z</time>
      </trkpt>
      <trkpt lat="48.29388" lon="6.79782">
        <ele>463.49</ele>
        <time>2018-01-29T13:35:03Z</time>
      </trkpt>
      <trkpt lat="48.29384" lon="6.79763">
        <ele>463.97</ele>
        <time>2018-01-29T13:35:15Z</time>
      </trkpt>
      <trkpt lat="48.29381" lon="6.79749">
        <ele>461.57</ele>
        <time>2018-01-29T13:35:26Z</time>
      </trkpt>
      <trkpt lat="48.29376" lon="6.79733">
        <ele>458.21</ele>
        <time>2018-01-29T13:35:39Z</time>
      </trkpt>
      <trkpt lat="48.29371" lon="6.79715">
        <ele>457.24</ele>
        <time>2018-01-29T13:35:51Z</time>
      </trkpt>
      <trkpt lat="48.29366" lon="6.79697">
        <ele>454.36</ele>
        <time>2018-01-29T13:36:04Z</time>
      </trkpt>
      <trkpt lat="48.29361" lon="6.79679">
        <ele>451</ele>
        <time>2018-01-29T13:36:17Z</time>
      </trkpt>
      <trkpt lat="48.29356" lon="6.79663">
        <ele>451.96</ele>
        <time>2018-01-29T13:36:30Z</time>
      </trkpt>
      <trkpt lat="48.29354" lon="6.7964">
        <ele>451.96</ele>
        <time>2018-01-29T13:36:43Z</time>
      </trkpt>
      <trkpt lat="48.29353" lon="6.79625">
        <ele>450.52</ele>
        <time>2018-01-29T13:36:56Z</time>
      </trkpt>
      <trkpt lat="48.29351" lon="6.796">
        <ele>453.4</ele>
        <time>2018-01-29T13:37:09Z</time>
      </trkpt>
      <trkpt lat="48.29352" lon="6.79599">
        <ele>453.4</ele>
        <time>2018-01-29T13:37:10Z</time>
      </trkpt>
      <trkpt lat="48.29353" lon="6.79583">
        <ele>454.36</ele>
        <time>2018-01-29T13:37:21Z</time>
      </trkpt>
      <trkpt lat="48.29355" lon="6.79574">
        <ele>455.32</ele>
        <time>2018-01-29T13:37:27Z</time>
      </trkpt>
      <trkpt lat="48.29355" lon="6.79558">
        <ele>456.76</ele>
        <time>2018-01-29T13:37:38Z</time>
      </trkpt>
      <trkpt lat="48.29356" lon="6.79539">
        <ele>459.17</ele>
        <time>2018-01-29T13:37:51Z</time>
      </trkpt>
      <trkpt lat="48.29359" lon="6.79529">
        <ele>460.61</ele>
        <time>2018-01-29T13:38:03Z</time>
      </trkpt>
      <trkpt lat="48.29369" lon="6.79521">
        <ele>462.53</ele>
        <time>2018-01-29T13:38:15Z</time>
      </trkpt>
      <trkpt lat="48.29374" lon="6.79515">
        <ele>463.01</ele>
        <time>2018-01-29T13:38:23Z</time>
      </trkpt>
      <trkpt lat="48.29383" lon="6.79509">
        <ele>463.97</ele>
        <time>2018-01-29T13:38:33Z</time>
      </trkpt>
      <trkpt lat="48.29385" lon="6.79507">
        <ele>464.45</ele>
        <time>2018-01-29T13:38:36Z</time>
      </trkpt>
      <trkpt lat="48.29394" lon="6.79503">
        <ele>464.45</ele>
        <time>2018-01-29T13:38:47Z</time>
      </trkpt>
      <trkpt lat="48.29402" lon="6.79498">
        <ele>465.42</ele>
        <time>2018-01-29T13:38:57Z</time>
      </trkpt>
      <trkpt lat="48.2941" lon="6.79495">
        <ele>466.38</ele>
        <time>2018-01-29T13:39:07Z</time>
      </trkpt>
      <trkpt lat="48.29414" lon="6.79495">
        <ele>466.86</ele>
        <time>2018-01-29T13:39:16Z</time>
      </trkpt>
      <trkpt lat="48.29418" lon="6.79496">
        <ele>467.34</ele>
        <time>2018-01-29T13:39:21Z</time>
      </trkpt>
      <trkpt lat="48.29422" lon="6.79494">
        <ele>467.82</ele>
        <time>2018-01-29T13:39:26Z</time>
      </trkpt>
      <trkpt lat="48.2943" lon="6.79493">
        <ele>468.3</ele>
        <time>2018-01-29T13:39:32Z</time>
      </trkpt>
      <trkpt lat="48.29446" lon="6.79491">
        <ele>469.26</ele>
        <time>2018-01-29T13:39:44Z</time>
      </trkpt>
      <trkpt lat="48.29449" lon="6.7949">
        <ele>469.26</ele>
        <time>2018-01-29T13:39:47Z</time>
      </trkpt>
      <trkpt lat="48.2946" lon="6.79486">
        <ele>469.74</ele>
        <time>2018-01-29T13:39:58Z</time>
      </trkpt>
      <trkpt lat="48.2947" lon="6.79485">
        <ele>470.7</ele>
        <time>2018-01-29T13:40:09Z</time>
      </trkpt>
      <trkpt lat="48.29478" lon="6.79485">
        <ele>472.14</ele>
        <time>2018-01-29T13:40:20Z</time>
      </trkpt>
      <trkpt lat="48.29492" lon="6.79489">
        <ele>473.59</ele>
        <time>2018-01-29T13:40:33Z</time>
      </trkpt>
      <trkpt lat="48.29501" lon="6.79491">
        <ele>474.07</ele>
        <time>2018-01-29T13:40:43Z</time>
      </trkpt>
      <trkpt lat="48.29503" lon="6.79491">
        <ele>473.59</ele>
        <time>2018-01-29T13:40:56Z</time>
      </trkpt>
      <trkpt lat="48.29503" lon="6.7949">
        <ele>475.51</ele>
        <time>2018-01-29T13:41:13Z</time>
      </trkpt>
      <trkpt lat="48.29505" lon="6.79491">
        <ele>475.99</ele>
        <time>2018-01-29T13:41:35Z</time>
      </trkpt>
      <trkpt lat="48.29505" lon="6.79494">
        <ele>477.91</ele>
        <time>2018-01-29T13:41:52Z</time>
      </trkpt>
      <trkpt lat="48.29506" lon="6.7949">
        <ele>477.43</ele>
        <time>2018-01-29T13:42:07Z</time>
      </trkpt>
      <trkpt lat="48.2951" lon="6.79489">
        <ele>478.39</ele>
        <time>2018-01-29T13:42:16Z</time>
      </trkpt>
      <trkpt lat="48.29516" lon="6.7949">
        <ele>476.95</ele>
        <time>2018-01-29T13:42:26Z</time>
      </trkpt>
      <trkpt lat="48.29518" lon="6.79489">
        <ele>476.95</ele>
        <time>2018-01-29T13:42:29Z</time>
      </trkpt>
      <trkpt lat="48.29525" lon="6.79488">
        <ele>476.47</ele>
        <time>2018-01-29T13:42:35Z</time>
      </trkpt>
      <trkpt lat="48.29534" lon="6.79483">
        <ele>475.51</ele>
        <time>2018-01-29T13:42:43Z</time>
      </trkpt>
      <trkpt lat="48.29541" lon="6.79473">
        <ele>474.07</ele>
        <time>2018-01-29T13:42:51Z</time>
      </trkpt>
      <trkpt lat="48.29542" lon="6.79454">
        <ele>475.99</ele>
        <time>2018-01-29T13:43:06Z</time>
      </trkpt>
      <trkpt lat="48.29542" lon="6.79449">
        <ele>476.47</ele>
        <time>2018-01-29T13:43:10Z</time>
      </trkpt>
      <trkpt lat="48.29538" lon="6.79436">
        <ele>477.43</ele>
        <time>2018-01-29T13:43:20Z</time>
      </trkpt>
      <trkpt lat="48.29532" lon="6.79424">
        <ele>478.39</ele>
        <time>2018-01-29T13:43:33Z</time>
      </trkpt>
      <trkpt lat="48.29525" lon="6.79415">
        <ele>479.84</ele>
        <time>2018-01-29T13:43:45Z</time>
      </trkpt>
      <trkpt lat="48.29519" lon="6.79405">
        <ele>479.35</ele>
        <time>2018-01-29T13:43:57Z</time>
      </trkpt>
      <trkpt lat="48.29515" lon="6.79394">
        <ele>475.99</ele>
        <time>2018-01-29T13:44:10Z</time>
      </trkpt>
      <trkpt lat="48.29509" lon="6.79384">
        <ele>472.63</ele>
        <time>2018-01-29T13:44:22Z</time>
      </trkpt>
      <trkpt lat="48.29499" lon="6.79373">
        <ele>470.7</ele>
        <time>2018-01-29T13:44:36Z</time>
      </trkpt>
      <trkpt lat="48.29484" lon="6.7936">
        <ele>472.14</ele>
        <time>2018-01-29T13:44:53Z</time>
      </trkpt>
      <trkpt lat="48.29473" lon="6.79352">
        <ele>471.66</ele>
        <time>2018-01-29T13:45:06Z</time>
      </trkpt>
      <trkpt lat="48.29464" lon="6.79338">
        <ele>472.14</ele>
        <time>2018-01-29T13:45:19Z</time>
      </trkpt>
      <trkpt lat="48.29456" lon="6.79317">
        <ele>475.99</ele>
        <time>2018-01-29T13:45:34Z</time>
      </trkpt>
      <trkpt lat="48.29453" lon="6.79307">
        <ele>478.39</ele>
        <time>2018-01-29T13:45:41Z</time>
      </trkpt>
      <trkpt lat="48.29451" lon="6.79303">
        <ele>478.87</ele>
        <time>2018-01-29T13:45:43Z</time>
      </trkpt>
      <trkpt lat="48.29449" lon="6.7929">
        <ele>481.76</ele>
        <time>2018-01-29T13:45:52Z</time>
      </trkpt>
      <trkpt lat="48.29447" lon="6.79278">
        <ele>484.64</ele>
        <time>2018-01-29T13:46:02Z</time>
      </trkpt>
      <trkpt lat="48.29446" lon="6.7927">
        <ele>485.12</ele>
        <time>2018-01-29T13:46:08Z</time>
      </trkpt>
      <trkpt lat="48.29445" lon="6.79259">
        <ele>484.64</ele>
        <time>2018-01-29T13:46:15Z</time>
      </trkpt>
      <trkpt lat="48.29444" lon="6.7925">
        <ele>485.6</ele>
        <time>2018-01-29T13:46:21Z</time>
      </trkpt>
      <trkpt lat="48.29443" lon="6.79235">
        <ele>488.49</ele>
        <time>2018-01-29T13:46:31Z</time>
      </trkpt>
      <trkpt lat="48.29443" lon="6.79231">
        <ele>488.49</ele>
        <time>2018-01-29T13:46:34Z</time>
      </trkpt>
      <trkpt lat="48.29444" lon="6.79222">
        <ele>488.01</ele>
        <time>2018-01-29T13:46:40Z</time>
      </trkpt>
      <trkpt lat="48.29443" lon="6.79213">
        <ele>488.01</ele>
        <time>2018-01-29T13:46:46Z</time>
      </trkpt>
      <trkpt lat="48.29445" lon="6.792">
        <ele>487.05</ele>
        <time>2018-01-29T13:46:54Z</time>
      </trkpt>
      <trkpt lat="48.29446" lon="6.79197">
        <ele>486.08</ele>
        <time>2018-01-29T13:46:58Z</time>
      </trkpt>
      <trkpt lat="48.29453" lon="6.79178">
        <ele>487.05</ele>
        <time>2018-01-29T13:47:13Z</time>
      </trkpt>
      <trkpt lat="48.29457" lon="6.79169">
        <ele>488.97</ele>
        <time>2018-01-29T13:47:20Z</time>
      </trkpt>
      <trkpt lat="48.29462" lon="6.7916">
        <ele>489.93</ele>
        <time>2018-01-29T13:47:27Z</time>
      </trkpt>
      <trkpt lat="48.2947" lon="6.7915">
        <ele>488.01</ele>
        <time>2018-01-29T13:47:39Z</time>
      </trkpt>
      <trkpt lat="48.29475" lon="6.79146">
        <ele>486.08</ele>
        <time>2018-01-29T13:47:46Z</time>
      </trkpt>
      <trkpt lat="48.29479" lon="6.7914">
        <ele>485.12</ele>
        <time>2018-01-29T13:47:51Z</time>
      </trkpt>
      <trkpt lat="48.29488" lon="6.79131">
        <ele>488.97</ele>
        <time>2018-01-29T13:48:02Z</time>
      </trkpt>
      <trkpt lat="48.29498" lon="6.79128">
        <ele>492.81</ele>
        <time>2018-01-29T13:48:14Z</time>
      </trkpt>
      <trkpt lat="48.29508" lon="6.79126">
        <ele>494.74</ele>
        <time>2018-01-29T13:48:26Z</time>
      </trkpt>
      <trkpt lat="48.29517" lon="6.79121">
        <ele>496.66</ele>
        <time>2018-01-29T13:48:37Z</time>
      </trkpt>
      <trkpt lat="48.29525" lon="6.79115">
        <ele>498.58</ele>
        <time>2018-01-29T13:48:47Z</time>
      </trkpt>
      <trkpt lat="48.29536" lon="6.79108">
        <ele>501.46</ele>
        <time>2018-01-29T13:48:58Z</time>
      </trkpt>
      <trkpt lat="48.29544" lon="6.79099">
        <ele>501.95</ele>
        <time>2018-01-29T13:49:11Z</time>
      </trkpt>
      <trkpt lat="48.29547" lon="6.79098">
        <ele>500.02</ele>
        <time>2018-01-29T13:49:26Z</time>
      </trkpt>
      <trkpt lat="48.29547" lon="6.79098">
        <ele>501.46</ele>
        <time>2018-01-29T13:49:49Z</time>
      </trkpt>
      <trkpt lat="48.29548" lon="6.79099">
        <ele>507.71</ele>
        <time>2018-01-29T13:50:21Z</time>
      </trkpt>
      <trkpt lat="48.29544" lon="6.79096">
        <ele>511.08</ele>
        <time>2018-01-29T13:50:52Z</time>
      </trkpt>
      <trkpt lat="48.29541" lon="6.79093">
        <ele>513.48</ele>
        <time>2018-01-29T13:51:20Z</time>
      </trkpt>
      <trkpt lat="48.29542" lon="6.7909">
        <ele>514.44</ele>
        <time>2018-01-29T13:51:37Z</time>
      </trkpt>
      <trkpt lat="48.29543" lon="6.79088">
        <ele>513.48</ele>
        <time>2018-01-29T13:52:04Z</time>
      </trkpt>
      <trkpt lat="48.29541" lon="6.79092">
        <ele>514.44</ele>
        <time>2018-01-29T13:52:29Z</time>
      </trkpt>
      <trkpt lat="48.29545" lon="6.79086">
        <ele>511.08</ele>
        <time>2018-01-29T13:52:56Z</time>
      </trkpt>
      <trkpt lat="48.29537" lon="6.79086">
        <ele>516.37</ele>
        <time>2018-01-29T13:53:27Z</time>
      </trkpt>
      <trkpt lat="48.29536" lon="6.79085">
        <ele>517.81</ele>
        <time>2018-01-29T13:54:02Z</time>
      </trkpt>
      <trkpt lat="48.29538" lon="6.79083">
        <ele>519.73</ele>
        <time>2018-01-29T13:54:23Z</time>
      </trkpt>
      <trkpt lat="48.29547" lon="6.7908">
        <ele>516.85</ele>
        <time>2018-01-29T13:54:37Z</time>
      </trkpt>
      <trkpt lat="48.29551" lon="6.79079">
        <ele>515.88</ele>
        <time>2018-01-29T13:54:46Z</time>
      </trkpt>
      <trkpt lat="48.29555" lon="6.79074">
        <ele>513.96</ele>
        <time>2018-01-29T13:54:51Z</time>
      </trkpt>
      <trkpt lat="48.29558" lon="6.79071">
        <ele>513</ele>
        <time>2018-01-29T13:54:54Z</time>
      </trkpt>
      <trkpt lat="48.29569" lon="6.79056">
        <ele>508.67</ele>
        <time>2018-01-29T13:55:07Z</time>
      </trkpt>
      <trkpt lat="48.2958" lon="6.79036">
        <ele>504.35</ele>
        <time>2018-01-29T13:55:22Z</time>
      </trkpt>
      <trkpt lat="48.2959" lon="6.7903">
        <ele>502.43</ele>
        <time>2018-01-29T13:55:35Z</time>
      </trkpt>
      <trkpt lat="48.29601" lon="6.79031">
        <ele>503.39</ele>
        <time>2018-01-29T13:55:45Z</time>
      </trkpt>
      <trkpt lat="48.29615" lon="6.79035">
        <ele>505.79</ele>
        <time>2018-01-29T13:55:56Z</time>
      </trkpt>
      <trkpt lat="48.29626" lon="6.79036">
        <ele>507.23</ele>
        <time>2018-01-29T13:56:07Z</time>
      </trkpt>
      <trkpt lat="48.29635" lon="6.79038">
        <ele>508.19</ele>
        <time>2018-01-29T13:56:19Z</time>
      </trkpt>
      <trkpt lat="48.29642" lon="6.79042">
        <ele>506.27</ele>
        <time>2018-01-29T13:56:31Z</time>
      </trkpt>
      <trkpt lat="48.29654" lon="6.79042">
        <ele>504.35</ele>
        <time>2018-01-29T13:56:44Z</time>
      </trkpt>
      <trkpt lat="48.29657" lon="6.79044">
        <ele>504.83</ele>
        <time>2018-01-29T13:56:47Z</time>
      </trkpt>
      <trkpt lat="48.29664" lon="6.79047">
        <ele>502.43</ele>
        <time>2018-01-29T13:56:58Z</time>
      </trkpt>
      <trkpt lat="48.2967" lon="6.79048">
        <ele>502.43</ele>
        <time>2018-01-29T13:57:03Z</time>
      </trkpt>
      <trkpt lat="48.29674" lon="6.7905">
        <ele>501.95</ele>
        <time>2018-01-29T13:57:07Z</time>
      </trkpt>
      <trkpt lat="48.29697" lon="6.79053">
        <ele>503.39</ele>
        <time>2018-01-29T13:57:21Z</time>
      </trkpt>
      <trkpt lat="48.29717" lon="6.79065">
        <ele>510.6</ele>
        <time>2018-01-29T13:57:35Z</time>
      </trkpt>
      <trkpt lat="48.29727" lon="6.79067">
        <ele>510.12</ele>
        <time>2018-01-29T13:57:48Z</time>
      </trkpt>
      <trkpt lat="48.29737" lon="6.79063">
        <ele>509.64</ele>
        <time>2018-01-29T13:58:00Z</time>
      </trkpt>
      <trkpt lat="48.29748" lon="6.79052">
        <ele>509.16</ele>
        <time>2018-01-29T13:58:13Z</time>
      </trkpt>
      <trkpt lat="48.29753" lon="6.79036">
        <ele>506.27</ele>
        <time>2018-01-29T13:58:25Z</time>
      </trkpt>
      <trkpt lat="48.29748" lon="6.79015">
        <ele>505.79</ele>
        <time>2018-01-29T13:58:38Z</time>
      </trkpt>
      <trkpt lat="48.29748" lon="6.79002">
        <ele>505.79</ele>
        <time>2018-01-29T13:58:45Z</time>
      </trkpt>
      <trkpt lat="48.29742" lon="6.78987">
        <ele>505.79</ele>
        <time>2018-01-29T13:58:57Z</time>
      </trkpt>
      <trkpt lat="48.29738" lon="6.78968">
        <ele>501.95</ele>
        <time>2018-01-29T13:59:12Z</time>
      </trkpt>
      <trkpt lat="48.29735" lon="6.78954">
        <ele>499.06</ele>
        <time>2018-01-29T13:59:22Z</time>
      </trkpt>
      <trkpt lat="48.29739" lon="6.78935">
        <ele>495.22</ele>
        <time>2018-01-29T13:59:33Z</time>
      </trkpt>
      <trkpt lat="48.2974" lon="6.78907">
        <ele>495.22</ele>
        <time>2018-01-29T13:59:51Z</time>
      </trkpt>
      <trkpt lat="48.29742" lon="6.78871">
        <ele>502.43</ele>
        <time>2018-01-29T14:00:09Z</time>
      </trkpt>
      <trkpt lat="48.29742" lon="6.78853">
        <ele>503.87</ele>
        <time>2018-01-29T14:00:22Z</time>
      </trkpt>
      <trkpt lat="48.29744" lon="6.78839">
        <ele>504.83</ele>
        <time>2018-01-29T14:00:33Z</time>
      </trkpt>
      <trkpt lat="48.29744" lon="6.78838">
        <ele>504.83</ele>
        <time>2018-01-29T14:00:34Z</time>
      </trkpt>
      <trkpt lat="48.29736" lon="6.78824">
        <ele>503.39</ele>
        <time>2018-01-29T14:00:47Z</time>
      </trkpt>
      <trkpt lat="48.29733" lon="6.78821">
        <ele>502.91</ele>
        <time>2018-01-29T14:00:50Z</time>
      </trkpt>
      <trkpt lat="48.29731" lon="6.78818">
        <ele>502.43</ele>
        <time>2018-01-29T14:00:53Z</time>
      </trkpt>
      <trkpt lat="48.29719" lon="6.78807">
        <ele>501.95</ele>
        <time>2018-01-29T14:01:05Z</time>
      </trkpt>
      <trkpt lat="48.29705" lon="6.78799">
        <ele>499.54</ele>
        <time>2018-01-29T14:01:21Z</time>
      </trkpt>
      <trkpt lat="48.29696" lon="6.78794">
        <ele>498.1</ele>
        <time>2018-01-29T14:01:32Z</time>
      </trkpt>
      <trkpt lat="48.29688" lon="6.7879">
        <ele>497.14</ele>
        <time>2018-01-29T14:01:44Z</time>
      </trkpt>
      <trkpt lat="48.29688" lon="6.78789">
        <ele>497.14</ele>
        <time>2018-01-29T14:01:47Z</time>
      </trkpt>
      <trkpt lat="48.29678" lon="6.78785">
        <ele>495.22</ele>
        <time>2018-01-29T14:01:59Z</time>
      </trkpt>
      <trkpt lat="48.29675" lon="6.78783">
        <ele>495.7</ele>
        <time>2018-01-29T14:02:02Z</time>
      </trkpt>
      <trkpt lat="48.29671" lon="6.78781">
        <ele>495.22</ele>
        <time>2018-01-29T14:02:06Z</time>
      </trkpt>
      <trkpt lat="48.29667" lon="6.78779">
        <ele>495.7</ele>
        <time>2018-01-29T14:02:09Z</time>
      </trkpt>
      <trkpt lat="48.29664" lon="6.78776">
        <ele>495.7</ele>
        <time>2018-01-29T14:02:13Z</time>
      </trkpt>
      <trkpt lat="48.29654" lon="6.78768">
        <ele>497.62</ele>
        <time>2018-01-29T14:02:23Z</time>
      </trkpt>
      <trkpt lat="48.29649" lon="6.78767">
        <ele>499.06</ele>
        <time>2018-01-29T14:02:27Z</time>
      </trkpt>
      <trkpt lat="48.29636" lon="6.7876">
        <ele>500.02</ele>
        <time>2018-01-29T14:02:39Z</time>
      </trkpt>
      <trkpt lat="48.29622" lon="6.78754">
        <ele>501.46</ele>
        <time>2018-01-29T14:02:51Z</time>
      </trkpt>
      <trkpt lat="48.29614" lon="6.78751">
        <ele>502.91</ele>
        <time>2018-01-29T14:03:02Z</time>
      </trkpt>
      <trkpt lat="48.29606" lon="6.78742">
        <ele>503.87</ele>
        <time>2018-01-29T14:03:14Z</time>
      </trkpt>
      <trkpt lat="48.29598" lon="6.78735">
        <ele>503.39</ele>
        <time>2018-01-29T14:03:25Z</time>
      </trkpt>
      <trkpt lat="48.29584" lon="6.78725">
        <ele>501.95</ele>
        <time>2018-01-29T14:03:40Z</time>
      </trkpt>
      <trkpt lat="48.29575" lon="6.78713">
        <ele>502.43</ele>
        <time>2018-01-29T14:03:51Z</time>
      </trkpt>
      <trkpt lat="48.29566" lon="6.78697">
        <ele>501.95</ele>
        <time>2018-01-29T14:04:05Z</time>
      </trkpt>
      <trkpt lat="48.29557" lon="6.78688">
        <ele>500.02</ele>
        <time>2018-01-29T14:04:16Z</time>
      </trkpt>
      <trkpt lat="48.29548" lon="6.78672">
        <ele>498.58</ele>
        <time>2018-01-29T14:04:29Z</time>
      </trkpt>
      <trkpt lat="48.29538" lon="6.78658">
        <ele>500.5</ele>
        <time>2018-01-29T14:04:42Z</time>
      </trkpt>
      <trkpt lat="48.29526" lon="6.78643">
        <ele>501.95</ele>
        <time>2018-01-29T14:04:55Z</time>
      </trkpt>
      <trkpt lat="48.29518" lon="6.78632">
        <ele>503.39</ele>
        <time>2018-01-29T14:05:07Z</time>
      </trkpt>
      <trkpt lat="48.29512" lon="6.78619">
        <ele>503.87</ele>
        <time>2018-01-29T14:05:17Z</time>
      </trkpt>
      <trkpt lat="48.29504" lon="6.78607">
        <ele>501.95</ele>
        <time>2018-01-29T14:05:29Z</time>
      </trkpt>
      <trkpt lat="48.2949" lon="6.78595">
        <ele>501.95</ele>
        <time>2018-01-29T14:05:40Z</time>
      </trkpt>
      <trkpt lat="48.2947" lon="6.78589">
        <ele>501.46</ele>
        <time>2018-01-29T14:05:55Z</time>
      </trkpt>
      <trkpt lat="48.29457" lon="6.78588">
        <ele>500.98</ele>
        <time>2018-01-29T14:06:07Z</time>
      </trkpt>
      <trkpt lat="48.29447" lon="6.78587">
        <ele>496.18</ele>
        <time>2018-01-29T14:06:19Z</time>
      </trkpt>
      <trkpt lat="48.29439" lon="6.78583">
        <ele>495.22</ele>
        <time>2018-01-29T14:06:26Z</time>
      </trkpt>
      <trkpt lat="48.29418" lon="6.78571">
        <ele>500.02</ele>
        <time>2018-01-29T14:06:43Z</time>
      </trkpt>
      <trkpt lat="48.29406" lon="6.78569">
        <ele>500.02</ele>
        <time>2018-01-29T14:06:57Z</time>
      </trkpt>
      <trkpt lat="48.29394" lon="6.78572">
        <ele>498.1</ele>
        <time>2018-01-29T14:07:09Z</time>
      </trkpt>
      <trkpt lat="48.29379" lon="6.78572">
        <ele>495.7</ele>
        <time>2018-01-29T14:07:22Z</time>
      </trkpt>
      <trkpt lat="48.2937" lon="6.78574">
        <ele>493.77</ele>
        <time>2018-01-29T14:07:33Z</time>
      </trkpt>
      <trkpt lat="48.29361" lon="6.78574">
        <ele>493.29</ele>
        <time>2018-01-29T14:07:43Z</time>
      </trkpt>
      <trkpt lat="48.29353" lon="6.78569">
        <ele>488.49</ele>
        <time>2018-01-29T14:07:57Z</time>
      </trkpt>
      <trkpt lat="48.29342" lon="6.78562">
        <ele>489.93</ele>
        <time>2018-01-29T14:08:08Z</time>
      </trkpt>
      <trkpt lat="48.29328" lon="6.78565">
        <ele>490.41</ele>
        <time>2018-01-29T14:08:20Z</time>
      </trkpt>
      <trkpt lat="48.29315" lon="6.78561">
        <ele>491.37</ele>
        <time>2018-01-29T14:08:33Z</time>
      </trkpt>
      <trkpt lat="48.29299" lon="6.78557">
        <ele>490.41</ele>
        <time>2018-01-29T14:08:47Z</time>
      </trkpt>
      <trkpt lat="48.29287" lon="6.78551">
        <ele>491.85</ele>
        <time>2018-01-29T14:08:58Z</time>
      </trkpt>
      <trkpt lat="48.2928" lon="6.78549">
        <ele>491.37</ele>
        <time>2018-01-29T14:09:05Z</time>
      </trkpt>
      <trkpt lat="48.29264" lon="6.78541">
        <ele>494.74</ele>
        <time>2018-01-29T14:09:17Z</time>
      </trkpt>
      <trkpt lat="48.29257" lon="6.78536">
        <ele>495.22</ele>
        <time>2018-01-29T14:09:26Z</time>
      </trkpt>
      <trkpt lat="48.29245" lon="6.78527">
        <ele>495.22</ele>
        <time>2018-01-29T14:09:37Z</time>
      </trkpt>
      <trkpt lat="48.2923" lon="6.78523">
        <ele>492.33</ele>
        <time>2018-01-29T14:09:50Z</time>
      </trkpt>
      <trkpt lat="48.2922" lon="6.78518">
        <ele>491.37</ele>
        <time>2018-01-29T14:10:01Z</time>
      </trkpt>
      <trkpt lat="48.2921" lon="6.78518">
        <ele>490.41</ele>
        <time>2018-01-29T14:10:16Z</time>
      </trkpt>
      <trkpt lat="48.29204" lon="6.78521">
        <ele>485.6</ele>
        <time>2018-01-29T14:10:28Z</time>
      </trkpt>
      <trkpt lat="48.29201" lon="6.78523">
        <ele>483.2</ele>
        <time>2018-01-29T14:10:33Z</time>
      </trkpt>
      <trkpt lat="48.29192" lon="6.78527">
        <ele>484.64</ele>
        <time>2018-01-29T14:10:39Z</time>
      </trkpt>
      <trkpt lat="48.29176" lon="6.7853">
        <ele>490.41</ele>
        <time>2018-01-29T14:10:50Z</time>
      </trkpt>
      <trkpt lat="48.29175" lon="6.7853">
        <ele>490.89</ele>
        <time>2018-01-29T14:10:51Z</time>
      </trkpt>
      <trkpt lat="48.29165" lon="6.78529">
        <ele>492.81</ele>
        <time>2018-01-29T14:11:00Z</time>
      </trkpt>
      <trkpt lat="48.29164" lon="6.7853">
        <ele>492.81</ele>
        <time>2018-01-29T14:11:01Z</time>
      </trkpt>
      <trkpt lat="48.29159" lon="6.78529">
        <ele>493.77</ele>
        <time>2018-01-29T14:11:05Z</time>
      </trkpt>
      <trkpt lat="48.29144" lon="6.78527">
        <ele>499.06</ele>
        <time>2018-01-29T14:11:17Z</time>
      </trkpt>
      <trkpt lat="48.29143" lon="6.78526">
        <ele>499.54</ele>
        <time>2018-01-29T14:11:19Z</time>
      </trkpt>
      <trkpt lat="48.29125" lon="6.78524">
        <ele>501.46</ele>
        <time>2018-01-29T14:11:32Z</time>
      </trkpt>
      <trkpt lat="48.2911" lon="6.78529">
        <ele>501.46</ele>
        <time>2018-01-29T14:11:44Z</time>
      </trkpt>
      <trkpt lat="48.29099" lon="6.78531">
        <ele>501.95</ele>
        <time>2018-01-29T14:11:56Z</time>
      </trkpt>
      <trkpt lat="48.29088" lon="6.78534">
        <ele>501.95</ele>
        <time>2018-01-29T14:12:09Z</time>
      </trkpt>
      <trkpt lat="48.29075" lon="6.78536">
        <ele>502.91</ele>
        <time>2018-01-29T14:12:23Z</time>
      </trkpt>
      <trkpt lat="48.29072" lon="6.78536">
        <ele>502.91</ele>
        <time>2018-01-29T14:12:47Z</time>
      </trkpt>
      <trkpt lat="48.29064" lon="6.78529">
        <ele>505.31</ele>
        <time>2018-01-29T14:12:58Z</time>
      </trkpt>
      <trkpt lat="48.29061" lon="6.78521">
        <ele>505.31</ele>
        <time>2018-01-29T14:13:11Z</time>
      </trkpt>
      <trkpt lat="48.29056" lon="6.78521">
        <ele>504.35</ele>
        <time>2018-01-29T14:13:26Z</time>
      </trkpt>
      <trkpt lat="48.29061" lon="6.78523">
        <ele>502.91</ele>
        <time>2018-01-29T14:13:47Z</time>
      </trkpt>
      <trkpt lat="48.29068" lon="6.7852">
        <ele>502.43</ele>
        <time>2018-01-29T14:14:09Z</time>
      </trkpt>
      <trkpt lat="48.29054" lon="6.78524">
        <ele>503.87</ele>
        <time>2018-01-29T14:14:24Z</time>
      </trkpt>
      <trkpt lat="48.29044" lon="6.78526">
        <ele>506.27</ele>
        <time>2018-01-29T14:14:39Z</time>
      </trkpt>
      <trkpt lat="48.29051" lon="6.78526">
        <ele>504.83</ele>
        <time>2018-01-29T14:14:48Z</time>
      </trkpt>
      <trkpt lat="48.29057" lon="6.78527">
        <ele>503.39</ele>
        <time>2018-01-29T14:14:52Z</time>
      </trkpt>
      <trkpt lat="48.29071" lon="6.78522">
        <ele>503.87</ele>
        <time>2018-01-29T14:15:06Z</time>
      </trkpt>
      <trkpt lat="48.29063" lon="6.78526">
        <ele>504.83</ele>
        <time>2018-01-29T14:15:19Z</time>
      </trkpt>
      <trkpt lat="48.29052" lon="6.78532">
        <ele>505.31</ele>
        <time>2018-01-29T14:15:34Z</time>
      </trkpt>
      <trkpt lat="48.29049" lon="6.78529">
        <ele>503.39</ele>
        <time>2018-01-29T14:15:51Z</time>
      </trkpt>
      <trkpt lat="48.29035" lon="6.78533">
        <ele>505.31</ele>
        <time>2018-01-29T14:16:07Z</time>
      </trkpt>
      <trkpt lat="48.29025" lon="6.78534">
        <ele>506.27</ele>
        <time>2018-01-29T14:16:19Z</time>
      </trkpt>
      <trkpt lat="48.29018" lon="6.78537">
        <ele>505.79</ele>
        <time>2018-01-29T14:16:30Z</time>
      </trkpt>
      <trkpt lat="48.29011" lon="6.78537">
        <ele>507.23</ele>
        <time>2018-01-29T14:16:40Z</time>
      </trkpt>
      <trkpt lat="48.29001" lon="6.78539">
        <ele>506.75</ele>
        <time>2018-01-29T14:16:52Z</time>
      </trkpt>
      <trkpt lat="48.28993" lon="6.78542">
        <ele>506.75</ele>
        <time>2018-01-29T14:17:04Z</time>
      </trkpt>
      <trkpt lat="48.28985" lon="6.7854">
        <ele>507.71</ele>
        <time>2018-01-29T14:17:14Z</time>
      </trkpt>
      <trkpt lat="48.28969" lon="6.78537">
        <ele>510.12</ele>
        <time>2018-01-29T14:17:30Z</time>
      </trkpt>
      <trkpt lat="48.28954" lon="6.78534">
        <ele>510.6</ele>
        <time>2018-01-29T14:17:41Z</time>
      </trkpt>
      <trkpt lat="48.28943" lon="6.78536">
        <ele>508.67</ele>
        <time>2018-01-29T14:17:54Z</time>
      </trkpt>
      <trkpt lat="48.28936" lon="6.78534">
        <ele>508.19</ele>
        <time>2018-01-29T14:18:02Z</time>
      </trkpt>
      <trkpt lat="48.28925" lon="6.78532">
        <ele>510.6</ele>
        <time>2018-01-29T14:18:13Z</time>
      </trkpt>
      <trkpt lat="48.2892" lon="6.78528">
        <ele>507.71</ele>
        <time>2018-01-29T14:18:28Z</time>
      </trkpt>
      <trkpt lat="48.28915" lon="6.7852">
        <ele>504.35</ele>
        <time>2018-01-29T14:18:46Z</time>
      </trkpt>
      <trkpt lat="48.289" lon="6.78499">
        <ele>504.83</ele>
        <time>2018-01-29T14:19:03Z</time>
      </trkpt>
      <trkpt lat="48.28892" lon="6.78491">
        <ele>508.19</ele>
        <time>2018-01-29T14:19:15Z</time>
      </trkpt>
      <trkpt lat="48.28886" lon="6.78483">
        <ele>506.75</ele>
        <time>2018-01-29T14:19:27Z</time>
      </trkpt>
      <trkpt lat="48.28881" lon="6.78477">
        <ele>507.23</ele>
        <time>2018-01-29T14:19:51Z</time>
      </trkpt>
      <trkpt lat="48.2888" lon="6.78475">
        <ele>506.75</ele>
        <time>2018-01-29T14:19:53Z</time>
      </trkpt>
      <trkpt lat="48.28878" lon="6.78465">
        <ele>504.83</ele>
        <time>2018-01-29T14:20:05Z</time>
      </trkpt>
      <trkpt lat="48.28877" lon="6.78458">
        <ele>505.31</ele>
        <time>2018-01-29T14:20:18Z</time>
      </trkpt>
      <trkpt lat="48.28877" lon="6.78451">
        <ele>504.83</ele>
        <time>2018-01-29T14:20:29Z</time>
      </trkpt>
      <trkpt lat="48.28873" lon="6.78444">
        <ele>502.91</ele>
        <time>2018-01-29T14:20:40Z</time>
      </trkpt>
      <trkpt lat="48.2888" lon="6.78441">
        <ele>502.43</ele>
        <time>2018-01-29T14:20:56Z</time>
      </trkpt>
      <trkpt lat="48.2888" lon="6.78457">
        <ele>503.87</ele>
        <time>2018-01-29T14:21:21Z</time>
      </trkpt>
      <trkpt lat="48.2888" lon="6.78447">
        <ele>502.91</ele>
        <time>2018-01-29T14:21:33Z</time>
      </trkpt>
      <trkpt lat="48.28882" lon="6.78435">
        <ele>507.71</ele>
        <time>2018-01-29T14:22:00Z</time>
      </trkpt>
      <trkpt lat="48.28882" lon="6.78419">
        <ele>515.4</ele>
        <time>2018-01-29T14:22:22Z</time>
      </trkpt>
      <trkpt lat="48.2888" lon="6.78411">
        <ele>516.37</ele>
        <time>2018-01-29T14:22:40Z</time>
      </trkpt>
      <trkpt lat="48.28863" lon="6.78405">
        <ele>520.21</ele>
        <time>2018-01-29T14:23:11Z</time>
      </trkpt>
      <trkpt lat="48.28871" lon="6.78395">
        <ele>525.98</ele>
        <time>2018-01-29T14:23:42Z</time>
      </trkpt>
      <trkpt lat="48.28854" lon="6.78415">
        <ele>542.8</ele>
        <time>2018-01-29T14:24:09Z</time>
      </trkpt>
      <trkpt lat="48.28861" lon="6.78405">
        <ele>543.76</ele>
        <time>2018-01-29T14:24:35Z</time>
      </trkpt>
      <trkpt lat="48.28859" lon="6.78414">
        <ele>535.59</ele>
        <time>2018-01-29T14:25:01Z</time>
      </trkpt>
      <trkpt lat="48.28851" lon="6.78414">
        <ele>536.55</ele>
        <time>2018-01-29T14:25:23Z</time>
      </trkpt>
      <trkpt lat="48.28855" lon="6.78411">
        <ele>536.55</ele>
        <time>2018-01-29T14:25:36Z</time>
      </trkpt>
      <trkpt lat="48.2887" lon="6.78415">
        <ele>533.19</ele>
        <time>2018-01-29T14:25:55Z</time>
      </trkpt>
      <trkpt lat="48.28871" lon="6.78427">
        <ele>533.67</ele>
        <time>2018-01-29T14:26:16Z</time>
      </trkpt>
      <trkpt lat="48.28878" lon="6.78432">
        <ele>532.71</ele>
        <time>2018-01-29T14:26:43Z</time>
      </trkpt>
      <trkpt lat="48.28886" lon="6.7842">
        <ele>533.19</ele>
        <time>2018-01-29T14:27:20Z</time>
      </trkpt>
      <trkpt lat="48.28864" lon="6.78425">
        <ele>520.21</ele>
        <time>2018-01-29T14:27:51Z</time>
      </trkpt>
      <trkpt lat="48.28869" lon="6.7842">
        <ele>512.52</ele>
        <time>2018-01-29T14:28:27Z</time>
      </trkpt>
      <trkpt lat="48.28866" lon="6.7841">
        <ele>507.71</ele>
        <time>2018-01-29T14:29:07Z</time>
      </trkpt>
      <trkpt lat="48.28854" lon="6.7841">
        <ele>507.23</ele>
        <time>2018-01-29T14:29:41Z</time>
      </trkpt>
      <trkpt lat="48.28868" lon="6.78397">
        <ele>513.48</ele>
        <time>2018-01-29T14:30:17Z</time>
      </trkpt>
      <trkpt lat="48.28859" lon="6.784">
        <ele>517.81</ele>
        <time>2018-01-29T14:30:55Z</time>
      </trkpt>
      <trkpt lat="48.28862" lon="6.78404">
        <ele>518.29</ele>
        <time>2018-01-29T14:31:20Z</time>
      </trkpt>
      <trkpt lat="48.28853" lon="6.78406">
        <ele>514.44</ele>
        <time>2018-01-29T14:31:47Z</time>
      </trkpt>
      <trkpt lat="48.28858" lon="6.78399">
        <ele>512.52</ele>
        <time>2018-01-29T14:32:25Z</time>
      </trkpt>
      <trkpt lat="48.28858" lon="6.78402">
        <ele>517.33</ele>
        <time>2018-01-29T14:32:57Z</time>
      </trkpt>
      <trkpt lat="48.28863" lon="6.78393">
        <ele>518.77</ele>
        <time>2018-01-29T14:33:37Z</time>
      </trkpt>
      <trkpt lat="48.28871" lon="6.78389">
        <ele>521.65</ele>
        <time>2018-01-29T14:34:08Z</time>
      </trkpt>
      <trkpt lat="48.28872" lon="6.78395">
        <ele>520.69</ele>
        <time>2018-01-29T14:34:37Z</time>
      </trkpt>
      <trkpt lat="48.28884" lon="6.78399">
        <ele>520.69</ele>
        <time>2018-01-29T14:35:03Z</time>
      </trkpt>
      <trkpt lat="48.28887" lon="6.7839">
        <ele>523.09</ele>
        <time>2018-01-29T14:35:23Z</time>
      </trkpt>
      <trkpt lat="48.28879" lon="6.78381">
        <ele>522.13</ele>
        <time>2018-01-29T14:35:36Z</time>
      </trkpt>
      <trkpt lat="48.28877" lon="6.78373">
        <ele>521.65</ele>
        <time>2018-01-29T14:35:48Z</time>
      </trkpt>
      <trkpt lat="48.28872" lon="6.78365">
        <ele>518.77</ele>
        <time>2018-01-29T14:36:05Z</time>
      </trkpt>
      <trkpt lat="48.28868" lon="6.78352">
        <ele>519.25</ele>
        <time>2018-01-29T14:36:20Z</time>
      </trkpt>
      <trkpt lat="48.28865" lon="6.78344">
        <ele>518.77</ele>
        <time>2018-01-29T14:36:36Z</time>
      </trkpt>
      <trkpt lat="48.28863" lon="6.78338">
        <ele>520.69</ele>
        <time>2018-01-29T14:36:53Z</time>
      </trkpt>
      <trkpt lat="48.28859" lon="6.78326">
        <ele>523.58</ele>
        <time>2018-01-29T14:37:15Z</time>
      </trkpt>
      <trkpt lat="48.28862" lon="6.78322">
        <ele>520.21</ele>
        <time>2018-01-29T14:37:35Z</time>
      </trkpt>
      <trkpt lat="48.28869" lon="6.78326">
        <ele>516.85</ele>
        <time>2018-01-29T14:37:54Z</time>
      </trkpt>
      <trkpt lat="48.28876" lon="6.78333">
        <ele>513.96</ele>
        <time>2018-01-29T14:38:09Z</time>
      </trkpt>
      <trkpt lat="48.28882" lon="6.78339">
        <ele>513</ele>
        <time>2018-01-29T14:38:24Z</time>
      </trkpt>
      <trkpt lat="48.28891" lon="6.78343">
        <ele>510.6</ele>
        <time>2018-01-29T14:38:40Z</time>
      </trkpt>
      <trkpt lat="48.289" lon="6.78345">
        <ele>508.67</ele>
        <time>2018-01-29T14:38:55Z</time>
      </trkpt>
      <trkpt lat="48.2891" lon="6.78345">
        <ele>504.83</ele>
        <time>2018-01-29T14:39:12Z</time>
      </trkpt>
      <trkpt lat="48.28923" lon="6.78343">
        <ele>502.91</ele>
        <time>2018-01-29T14:39:31Z</time>
      </trkpt>
      <trkpt lat="48.28937" lon="6.78334">
        <ele>499.06</ele>
        <time>2018-01-29T14:39:49Z</time>
      </trkpt>
      <trkpt lat="48.2895" lon="6.78328">
        <ele>502.43</ele>
        <time>2018-01-29T14:40:10Z</time>
      </trkpt>
      <trkpt lat="48.28959" lon="6.7831">
        <ele>500.02</ele>
        <time>2018-01-29T14:40:26Z</time>
      </trkpt>
      <trkpt lat="48.28969" lon="6.78293">
        <ele>500.02</ele>
        <time>2018-01-29T14:40:42Z</time>
      </trkpt>
      <trkpt lat="48.28972" lon="6.78289">
        <ele>501.95</ele>
        <time>2018-01-29T14:40:57Z</time>
      </trkpt>
      <trkpt lat="48.28973" lon="6.78287">
        <ele>502.43</ele>
        <time>2018-01-29T14:41:17Z</time>
      </trkpt>
      <trkpt lat="48.28978" lon="6.78282">
        <ele>503.87</ele>
        <time>2018-01-29T14:41:32Z</time>
      </trkpt>
      <trkpt lat="48.28978" lon="6.78281">
        <ele>504.35</ele>
        <time>2018-01-29T14:41:49Z</time>
      </trkpt>
      <trkpt lat="48.28983" lon="6.78274">
        <ele>507.23</ele>
        <time>2018-01-29T14:41:59Z</time>
      </trkpt>
      <trkpt lat="48.28988" lon="6.78266">
        <ele>508.67</ele>
        <time>2018-01-29T14:42:12Z</time>
      </trkpt>
      <trkpt lat="48.28989" lon="6.78254">
        <ele>504.83</ele>
        <time>2018-01-29T14:42:23Z</time>
      </trkpt>
      <trkpt lat="48.28991" lon="6.78243">
        <ele>502.43</ele>
        <time>2018-01-29T14:42:35Z</time>
      </trkpt>
      <trkpt lat="48.28992" lon="6.78234">
        <ele>502.91</ele>
        <time>2018-01-29T14:42:47Z</time>
      </trkpt>
      <trkpt lat="48.28997" lon="6.78226">
        <ele>502.43</ele>
        <time>2018-01-29T14:42:58Z</time>
      </trkpt>
      <trkpt lat="48.28996" lon="6.78218">
        <ele>501.95</ele>
        <time>2018-01-29T14:43:08Z</time>
      </trkpt>
      <trkpt lat="48.28998" lon="6.78206">
        <ele>499.06</ele>
        <time>2018-01-29T14:43:26Z</time>
      </trkpt>
      <trkpt lat="48.29003" lon="6.78192">
        <ele>499.06</ele>
        <time>2018-01-29T14:43:40Z</time>
      </trkpt>
      <trkpt lat="48.29007" lon="6.78178">
        <ele>501.95</ele>
        <time>2018-01-29T14:43:53Z</time>
      </trkpt>
      <trkpt lat="48.29008" lon="6.78164">
        <ele>500.98</ele>
        <time>2018-01-29T14:44:05Z</time>
      </trkpt>
      <trkpt lat="48.29011" lon="6.78153">
        <ele>501.46</ele>
        <time>2018-01-29T14:44:13Z</time>
      </trkpt>
      <trkpt lat="48.2901" lon="6.78139">
        <ele>495.22</ele>
        <time>2018-01-29T14:44:26Z</time>
      </trkpt>
      <trkpt lat="48.29007" lon="6.78124">
        <ele>493.29</ele>
        <time>2018-01-29T14:44:39Z</time>
      </trkpt>
      <trkpt lat="48.29006" lon="6.78113">
        <ele>492.33</ele>
        <time>2018-01-29T14:44:47Z</time>
      </trkpt>
      <trkpt lat="48.29008" lon="6.78096">
        <ele>491.85</ele>
        <time>2018-01-29T14:44:58Z</time>
      </trkpt>
      <trkpt lat="48.29012" lon="6.78079">
        <ele>493.77</ele>
        <time>2018-01-29T14:45:12Z</time>
      </trkpt>
      <trkpt lat="48.2901" lon="6.7806">
        <ele>493.77</ele>
        <time>2018-01-29T14:45:25Z</time>
      </trkpt>
      <trkpt lat="48.29013" lon="6.78038">
        <ele>495.22</ele>
        <time>2018-01-29T14:45:38Z</time>
      </trkpt>
      <trkpt lat="48.29017" lon="6.78018">
        <ele>493.29</ele>
        <time>2018-01-29T14:45:53Z</time>
      </trkpt>
      <trkpt lat="48.29017" lon="6.78002">
        <ele>490.89</ele>
        <time>2018-01-29T14:46:06Z</time>
      </trkpt>
      <trkpt lat="48.29017" lon="6.77987">
        <ele>496.18</ele>
        <time>2018-01-29T14:46:17Z</time>
      </trkpt>
      <trkpt lat="48.29024" lon="6.77967">
        <ele>500.02</ele>
        <time>2018-01-29T14:46:31Z</time>
      </trkpt>
      <trkpt lat="48.2903" lon="6.7795">
        <ele>504.83</ele>
        <time>2018-01-29T14:46:43Z</time>
      </trkpt>
      <trkpt lat="48.29037" lon="6.77937">
        <ele>505.79</ele>
        <time>2018-01-29T14:46:57Z</time>
      </trkpt>
      <trkpt lat="48.29041" lon="6.77927">
        <ele>500.98</ele>
        <time>2018-01-29T14:47:11Z</time>
      </trkpt>
      <trkpt lat="48.29045" lon="6.77918">
        <ele>495.7</ele>
        <time>2018-01-29T14:47:23Z</time>
      </trkpt>
      <trkpt lat="48.29055" lon="6.77902">
        <ele>497.14</ele>
        <time>2018-01-29T14:47:38Z</time>
      </trkpt>
      <trkpt lat="48.29066" lon="6.77893">
        <ele>500.5</ele>
        <time>2018-01-29T14:47:52Z</time>
      </trkpt>
      <trkpt lat="48.29075" lon="6.77882">
        <ele>501.46</ele>
        <time>2018-01-29T14:48:05Z</time>
      </trkpt>
      <trkpt lat="48.29085" lon="6.77864">
        <ele>501.95</ele>
        <time>2018-01-29T14:48:16Z</time>
      </trkpt>
      <trkpt lat="48.29087" lon="6.77859">
        <ele>500.98</ele>
        <time>2018-01-29T14:48:20Z</time>
      </trkpt>
      <trkpt lat="48.29092" lon="6.77848">
        <ele>498.58</ele>
        <time>2018-01-29T14:48:31Z</time>
      </trkpt>
      <trkpt lat="48.29094" lon="6.77836">
        <ele>499.54</ele>
        <time>2018-01-29T14:48:43Z</time>
      </trkpt>
      <trkpt lat="48.29103" lon="6.77822">
        <ele>500.02</ele>
        <time>2018-01-29T14:48:55Z</time>
      </trkpt>
      <trkpt lat="48.2911" lon="6.77812">
        <ele>500.02</ele>
        <time>2018-01-29T14:49:05Z</time>
      </trkpt>
      <trkpt lat="48.29119" lon="6.77811">
        <ele>502.43</ele>
        <time>2018-01-29T14:49:14Z</time>
      </trkpt>
      <trkpt lat="48.29118" lon="6.77813">
        <ele>500.98</ele>
        <time>2018-01-29T14:49:36Z</time>
      </trkpt>
      <trkpt lat="48.29111" lon="6.77809">
        <ele>502.43</ele>
        <time>2018-01-29T14:50:07Z</time>
      </trkpt>
      <trkpt lat="48.29125" lon="6.77798">
        <ele>502.43</ele>
        <time>2018-01-29T14:50:15Z</time>
      </trkpt>
      <trkpt lat="48.29138" lon="6.77791">
        <ele>501.95</ele>
        <time>2018-01-29T14:50:25Z</time>
      </trkpt>
      <trkpt lat="48.29144" lon="6.77788">
        <ele>501.95</ele>
        <time>2018-01-29T14:50:29Z</time>
      </trkpt>
      <trkpt lat="48.29147" lon="6.77786">
        <ele>502.43</ele>
        <time>2018-01-29T14:50:31Z</time>
      </trkpt>
      <trkpt lat="48.29169" lon="6.77803">
        <ele>498.1</ele>
        <time>2018-01-29T14:50:46Z</time>
      </trkpt>
      <trkpt lat="48.29171" lon="6.77805">
        <ele>497.62</ele>
        <time>2018-01-29T14:50:48Z</time>
      </trkpt>
      <trkpt lat="48.29177" lon="6.77813">
        <ele>497.14</ele>
        <time>2018-01-29T14:50:55Z</time>
      </trkpt>
      <trkpt lat="48.29182" lon="6.77819">
        <ele>496.66</ele>
        <time>2018-01-29T14:51:00Z</time>
      </trkpt>
      <trkpt lat="48.29197" lon="6.77836">
        <ele>497.14</ele>
        <time>2018-01-29T14:51:12Z</time>
      </trkpt>
      <trkpt lat="48.29203" lon="6.77841">
        <ele>495.7</ele>
        <time>2018-01-29T14:51:17Z</time>
      </trkpt>
      <trkpt lat="48.29217" lon="6.7785">
        <ele>494.74</ele>
        <time>2018-01-29T14:51:32Z</time>
      </trkpt>
      <trkpt lat="48.29219" lon="6.77854">
        <ele>493.77</ele>
        <time>2018-01-29T14:51:35Z</time>
      </trkpt>
      <trkpt lat="48.29228" lon="6.77867">
        <ele>488.97</ele>
        <time>2018-01-29T14:51:46Z</time>
      </trkpt>
      <trkpt lat="48.29239" lon="6.77874">
        <ele>488.01</ele>
        <time>2018-01-29T14:51:55Z</time>
      </trkpt>
      <trkpt lat="48.29252" lon="6.77882">
        <ele>486.08</ele>
        <time>2018-01-29T14:52:05Z</time>
      </trkpt>
      <trkpt lat="48.29255" lon="6.77883">
        <ele>485.6</ele>
        <time>2018-01-29T14:52:07Z</time>
      </trkpt>
      <trkpt lat="48.29273" lon="6.779">
        <ele>483.68</ele>
        <time>2018-01-29T14:52:21Z</time>
      </trkpt>
      <trkpt lat="48.29279" lon="6.77904">
        <ele>482.72</ele>
        <time>2018-01-29T14:52:28Z</time>
      </trkpt>
      <trkpt lat="48.29292" lon="6.77914">
        <ele>478.87</ele>
        <time>2018-01-29T14:52:41Z</time>
      </trkpt>
      <trkpt lat="48.29302" lon="6.77923">
        <ele>475.51</ele>
        <time>2018-01-29T14:52:52Z</time>
      </trkpt>
      <trkpt lat="48.29303" lon="6.77923">
        <ele>475.03</ele>
        <time>2018-01-29T14:52:53Z</time>
      </trkpt>
      <trkpt lat="48.29307" lon="6.77925">
        <ele>472.14</ele>
        <time>2018-01-29T14:52:58Z</time>
      </trkpt>
      <trkpt lat="48.29316" lon="6.77945">
        <ele>472.63</ele>
        <time>2018-01-29T14:53:10Z</time>
      </trkpt>
      <trkpt lat="48.29325" lon="6.77961">
        <ele>474.55</ele>
        <time>2018-01-29T14:53:21Z</time>
      </trkpt>
      <trkpt lat="48.29332" lon="6.77972">
        <ele>474.07</ele>
        <time>2018-01-29T14:53:32Z</time>
      </trkpt>
      <trkpt lat="48.29343" lon="6.77984">
        <ele>473.11</ele>
        <time>2018-01-29T14:53:47Z</time>
      </trkpt>
      <trkpt lat="48.29349" lon="6.77996">
        <ele>476.47</ele>
        <time>2018-01-29T14:53:59Z</time>
      </trkpt>
      <trkpt lat="48.29359" lon="6.77998">
        <ele>475.99</ele>
        <time>2018-01-29T14:54:09Z</time>
      </trkpt>
      <trkpt lat="48.29373" lon="6.78003">
        <ele>476.47</ele>
        <time>2018-01-29T14:54:19Z</time>
      </trkpt>
      <trkpt lat="48.29376" lon="6.78001">
        <ele>475.99</ele>
        <time>2018-01-29T14:54:22Z</time>
      </trkpt>
      <trkpt lat="48.29392" lon="6.78">
        <ele>475.03</ele>
        <time>2018-01-29T14:54:35Z</time>
      </trkpt>
      <trkpt lat="48.29394" lon="6.78">
        <ele>475.03</ele>
        <time>2018-01-29T14:54:37Z</time>
      </trkpt>
      <trkpt lat="48.29399" lon="6.77999">
        <ele>474.55</ele>
        <time>2018-01-29T14:54:42Z</time>
      </trkpt>
      <trkpt lat="48.29409" lon="6.77997">
        <ele>473.11</ele>
        <time>2018-01-29T14:54:54Z</time>
      </trkpt>
      <trkpt lat="48.29423" lon="6.77997">
        <ele>473.11</ele>
        <time>2018-01-29T14:55:08Z</time>
      </trkpt>
      <trkpt lat="48.29426" lon="6.77995">
        <ele>473.59</ele>
        <time>2018-01-29T14:55:11Z</time>
      </trkpt>
      <trkpt lat="48.29445" lon="6.77994">
        <ele>473.59</ele>
        <time>2018-01-29T14:55:26Z</time>
      </trkpt>
      <trkpt lat="48.29467" lon="6.77995">
        <ele>478.87</ele>
        <time>2018-01-29T14:55:40Z</time>
      </trkpt>
      <trkpt lat="48.29478" lon="6.77989">
        <ele>476.95</ele>
        <time>2018-01-29T14:55:53Z</time>
      </trkpt>
      <trkpt lat="48.29493" lon="6.77979">
        <ele>479.35</ele>
        <time>2018-01-29T14:56:05Z</time>
      </trkpt>
      <trkpt lat="48.29501" lon="6.77976">
        <ele>483.2</ele>
        <time>2018-01-29T14:56:10Z</time>
      </trkpt>
      <trkpt lat="48.29504" lon="6.77974">
        <ele>483.2</ele>
        <time>2018-01-29T14:56:13Z</time>
      </trkpt>
      <trkpt lat="48.29507" lon="6.77973">
        <ele>482.72</ele>
        <time>2018-01-29T14:56:15Z</time>
      </trkpt>
      <trkpt lat="48.29509" lon="6.7797">
        <ele>482.72</ele>
        <time>2018-01-29T14:56:18Z</time>
      </trkpt>
      <trkpt lat="48.29521" lon="6.77958">
        <ele>483.68</ele>
        <time>2018-01-29T14:56:33Z</time>
      </trkpt>
      <trkpt lat="48.29523" lon="6.77956">
        <ele>484.16</ele>
        <time>2018-01-29T14:56:35Z</time>
      </trkpt>
      <trkpt lat="48.29527" lon="6.7795">
        <ele>485.12</ele>
        <time>2018-01-29T14:56:39Z</time>
      </trkpt>
      <trkpt lat="48.2954" lon="6.77934">
        <ele>484.64</ele>
        <time>2018-01-29T14:56:56Z</time>
      </trkpt>
      <trkpt lat="48.29555" lon="6.77928">
        <ele>485.12</ele>
        <time>2018-01-29T14:57:10Z</time>
      </trkpt>
      <trkpt lat="48.29564" lon="6.77935">
        <ele>487.05</ele>
        <time>2018-01-29T14:57:20Z</time>
      </trkpt>
      <trkpt lat="48.29569" lon="6.77939">
        <ele>486.56</ele>
        <time>2018-01-29T14:57:24Z</time>
      </trkpt>
      <trkpt lat="48.29576" lon="6.77945">
        <ele>486.56</ele>
        <time>2018-01-29T14:57:29Z</time>
      </trkpt>
      <trkpt lat="48.29583" lon="6.77949">
        <ele>486.08</ele>
        <time>2018-01-29T14:57:35Z</time>
      </trkpt>
      <trkpt lat="48.29592" lon="6.77954">
        <ele>485.6</ele>
        <time>2018-01-29T14:57:43Z</time>
      </trkpt>
      <trkpt lat="48.29594" lon="6.77954">
        <ele>485.6</ele>
        <time>2018-01-29T14:57:45Z</time>
      </trkpt>
      <trkpt lat="48.29603" lon="6.77961">
        <ele>485.6</ele>
        <time>2018-01-29T14:57:56Z</time>
      </trkpt>
      <trkpt lat="48.29614" lon="6.77969">
        <ele>485.12</ele>
        <time>2018-01-29T14:58:07Z</time>
      </trkpt>
      <trkpt lat="48.29618" lon="6.77972">
        <ele>484.64</ele>
        <time>2018-01-29T14:58:11Z</time>
      </trkpt>
      <trkpt lat="48.29624" lon="6.77975">
        <ele>483.68</ele>
        <time>2018-01-29T14:58:16Z</time>
      </trkpt>
      <trkpt lat="48.29636" lon="6.77982">
        <ele>482.24</ele>
        <time>2018-01-29T14:58:30Z</time>
      </trkpt>
      <trkpt lat="48.29657" lon="6.77991">
        <ele>481.76</ele>
        <time>2018-01-29T14:58:48Z</time>
      </trkpt>
      <trkpt lat="48.29684" lon="6.77999">
        <ele>480.8</ele>
        <time>2018-01-29T14:59:06Z</time>
      </trkpt>
      <trkpt lat="48.29699" lon="6.78006">
        <ele>480.32</ele>
        <time>2018-01-29T14:59:24Z</time>
      </trkpt>
      <trkpt lat="48.29719" lon="6.78012">
        <ele>477.91</ele>
        <time>2018-01-29T14:59:41Z</time>
      </trkpt>
      <trkpt lat="48.29733" lon="6.78019">
        <ele>477.43</ele>
        <time>2018-01-29T14:59:55Z</time>
      </trkpt>
      <trkpt lat="48.29748" lon="6.78027">
        <ele>475.99</ele>
        <time>2018-01-29T15:00:11Z</time>
      </trkpt>
      <trkpt lat="48.29749" lon="6.78027">
        <ele>475.99</ele>
        <time>2018-01-29T15:00:12Z</time>
      </trkpt>
      <trkpt lat="48.29769" lon="6.7804">
        <ele>474.55</ele>
        <time>2018-01-29T15:00:29Z</time>
      </trkpt>
      <trkpt lat="48.29775" lon="6.78045">
        <ele>472.63</ele>
        <time>2018-01-29T15:00:36Z</time>
      </trkpt>
      <trkpt lat="48.29777" lon="6.78047">
        <ele>472.14</ele>
        <time>2018-01-29T15:00:38Z</time>
      </trkpt>
      <trkpt lat="48.29789" lon="6.78058">
        <ele>467.82</ele>
        <time>2018-01-29T15:00:54Z</time>
      </trkpt>
      <trkpt lat="48.29806" lon="6.7807">
        <ele>465.9</ele>
        <time>2018-01-29T15:01:11Z</time>
      </trkpt>
      <trkpt lat="48.29822" lon="6.78079">
        <ele>463.97</ele>
        <time>2018-01-29T15:01:26Z</time>
      </trkpt>
      <trkpt lat="48.29832" lon="6.78087">
        <ele>456.28</ele>
        <time>2018-01-29T15:01:41Z</time>
      </trkpt>
      <trkpt lat="48.29835" lon="6.78089">
        <ele>454.84</ele>
        <time>2018-01-29T15:01:44Z</time>
      </trkpt>
      <trkpt lat="48.29838" lon="6.78091">
        <ele>454.84</ele>
        <time>2018-01-29T15:01:47Z</time>
      </trkpt>
      <trkpt lat="48.29856" lon="6.78104">
        <ele>455.32</ele>
        <time>2018-01-29T15:02:05Z</time>
      </trkpt>
      <trkpt lat="48.29868" lon="6.78115">
        <ele>455.32</ele>
        <time>2018-01-29T15:02:17Z</time>
      </trkpt>
      <trkpt lat="48.29871" lon="6.78117">
        <ele>454.84</ele>
        <time>2018-01-29T15:02:21Z</time>
      </trkpt>
      <trkpt lat="48.29882" lon="6.78137">
        <ele>454.36</ele>
        <time>2018-01-29T15:02:37Z</time>
      </trkpt>
      <trkpt lat="48.29885" lon="6.7814">
        <ele>453.88</ele>
        <time>2018-01-29T15:02:41Z</time>
      </trkpt>
      <trkpt lat="48.29892" lon="6.78152">
        <ele>453.4</ele>
        <time>2018-01-29T15:02:52Z</time>
      </trkpt>
      <trkpt lat="48.29902" lon="6.78169">
        <ele>452.44</ele>
        <time>2018-01-29T15:03:07Z</time>
      </trkpt>
      <trkpt lat="48.29912" lon="6.78187">
        <ele>453.88</ele>
        <time>2018-01-29T15:03:19Z</time>
      </trkpt>
      <trkpt lat="48.29922" lon="6.78201">
        <ele>453.88</ele>
        <time>2018-01-29T15:03:32Z</time>
      </trkpt>
      <trkpt lat="48.29933" lon="6.78218">
        <ele>452.92</ele>
        <time>2018-01-29T15:03:46Z</time>
      </trkpt>
      <trkpt lat="48.29944" lon="6.78237">
        <ele>452.44</ele>
        <time>2018-01-29T15:04:01Z</time>
      </trkpt>
      <trkpt lat="48.29953" lon="6.78252">
        <ele>451.96</ele>
        <time>2018-01-29T15:04:13Z</time>
      </trkpt>
      <trkpt lat="48.29956" lon="6.78256">
        <ele>451.96</ele>
        <time>2018-01-29T15:04:17Z</time>
      </trkpt>
      <trkpt lat="48.29957" lon="6.78259">
        <ele>451.96</ele>
        <time>2018-01-29T15:04:19Z</time>
      </trkpt>
      <trkpt lat="48.29969" lon="6.78274">
        <ele>451.96</ele>
        <time>2018-01-29T15:04:33Z</time>
      </trkpt>
      <trkpt lat="48.29973" lon="6.78277">
        <ele>451.96</ele>
        <time>2018-01-29T15:04:37Z</time>
      </trkpt>
      <trkpt lat="48.29983" lon="6.78297">
        <ele>451</ele>
        <time>2018-01-29T15:04:51Z</time>
      </trkpt>
      <trkpt lat="48.29984" lon="6.78299">
        <ele>451</ele>
        <time>2018-01-29T15:04:53Z</time>
      </trkpt>
      <trkpt lat="48.29997" lon="6.78315">
        <ele>448.11</ele>
        <time>2018-01-29T15:05:08Z</time>
      </trkpt>
      <trkpt lat="48.30006" lon="6.78328">
        <ele>446.67</ele>
        <time>2018-01-29T15:05:18Z</time>
      </trkpt>
      <trkpt lat="48.30018" lon="6.78342">
        <ele>443.79</ele>
        <time>2018-01-29T15:05:33Z</time>
      </trkpt>
      <trkpt lat="48.30028" lon="6.78352">
        <ele>441.86</ele>
        <time>2018-01-29T15:05:47Z</time>
      </trkpt>
      <trkpt lat="48.30037" lon="6.78371">
        <ele>440.9</ele>
        <time>2018-01-29T15:06:00Z</time>
      </trkpt>
      <trkpt lat="48.30049" lon="6.78388">
        <ele>436.58</ele>
        <time>2018-01-29T15:06:15Z</time>
      </trkpt>
      <trkpt lat="48.30057" lon="6.78399">
        <ele>430.81</ele>
        <time>2018-01-29T15:06:28Z</time>
      </trkpt>
      <trkpt lat="48.30063" lon="6.78405">
        <ele>429.85</ele>
        <time>2018-01-29T15:06:35Z</time>
      </trkpt>
      <trkpt lat="48.30074" lon="6.78417">
        <ele>426.96</ele>
        <time>2018-01-29T15:06:49Z</time>
      </trkpt>
      <trkpt lat="48.30081" lon="6.78425">
        <ele>424.08</ele>
        <time>2018-01-29T15:07:03Z</time>
      </trkpt>
      <trkpt lat="48.30083" lon="6.78422">
        <ele>420.23</ele>
        <time>2018-01-29T15:07:21Z</time>
      </trkpt>
      <trkpt lat="48.30079" lon="6.78425">
        <ele>422.16</ele>
        <time>2018-01-29T15:07:45Z</time>
      </trkpt>
      <trkpt lat="48.30079" lon="6.78423">
        <ele>422.64</ele>
        <time>2018-01-29T15:08:13Z</time>
      </trkpt>
      <trkpt lat="48.30079" lon="6.78419">
        <ele>429.85</ele>
        <time>2018-01-29T15:08:40Z</time>
      </trkpt>
      <trkpt lat="48.30086" lon="6.78421">
        <ele>436.58</ele>
        <time>2018-01-29T15:09:06Z</time>
      </trkpt>
      <trkpt lat="48.30091" lon="6.78435">
        <ele>435.61</ele>
        <time>2018-01-29T15:09:26Z</time>
      </trkpt>
      <trkpt lat="48.30099" lon="6.78443">
        <ele>431.29</ele>
        <time>2018-01-29T15:09:37Z</time>
      </trkpt>
      <trkpt lat="48.30109" lon="6.78452">
        <ele>423.6</ele>
        <time>2018-01-29T15:09:51Z</time>
      </trkpt>
      <trkpt lat="48.30119" lon="6.78464">
        <ele>423.12</ele>
        <time>2018-01-29T15:10:05Z</time>
      </trkpt>
      <trkpt lat="48.3013" lon="6.78477">
        <ele>421.19</ele>
        <time>2018-01-29T15:10:17Z</time>
      </trkpt>
      <trkpt lat="48.30142" lon="6.7849">
        <ele>419.75</ele>
        <time>2018-01-29T15:10:28Z</time>
      </trkpt>
      <trkpt lat="48.30155" lon="6.78503">
        <ele>419.27</ele>
        <time>2018-01-29T15:10:42Z</time>
      </trkpt>
      <trkpt lat="48.30157" lon="6.78507">
        <ele>419.27</ele>
        <time>2018-01-29T15:10:45Z</time>
      </trkpt>
      <trkpt lat="48.30161" lon="6.78526">
        <ele>418.79</ele>
        <time>2018-01-29T15:10:59Z</time>
      </trkpt>
      <trkpt lat="48.30162" lon="6.78534">
        <ele>417.83</ele>
        <time>2018-01-29T15:11:09Z</time>
      </trkpt>
      <trkpt lat="48.30164" lon="6.78555">
        <ele>413.98</ele>
        <time>2018-01-29T15:11:22Z</time>
      </trkpt>
      <trkpt lat="48.30168" lon="6.78573">
        <ele>406.77</ele>
        <time>2018-01-29T15:11:35Z</time>
      </trkpt>
      <trkpt lat="48.30175" lon="6.78588">
        <ele>404.85</ele>
        <time>2018-01-29T15:11:46Z</time>
      </trkpt>
      <trkpt lat="48.30185" lon="6.78603">
        <ele>403.89</ele>
        <time>2018-01-29T15:12:01Z</time>
      </trkpt>
      <trkpt lat="48.30187" lon="6.78611">
        <ele>403.89</ele>
        <time>2018-01-29T15:12:05Z</time>
      </trkpt>
      <trkpt lat="48.30194" lon="6.78625">
        <ele>403.41</ele>
        <time>2018-01-29T15:12:14Z</time>
      </trkpt>
      <trkpt lat="48.30198" lon="6.78633">
        <ele>403.41</ele>
        <time>2018-01-29T15:12:20Z</time>
      </trkpt>
      <trkpt lat="48.30202" lon="6.78647">
        <ele>402.93</ele>
        <time>2018-01-29T15:12:30Z</time>
      </trkpt>
      <trkpt lat="48.30204" lon="6.78657">
        <ele>402.93</ele>
        <time>2018-01-29T15:12:37Z</time>
      </trkpt>
      <trkpt lat="48.30211" lon="6.78684">
        <ele>402.93</ele>
        <time>2018-01-29T15:12:54Z</time>
      </trkpt>
      <trkpt lat="48.30215" lon="6.78724">
        <ele>404.37</ele>
        <time>2018-01-29T15:13:13Z</time>
      </trkpt>
      <trkpt lat="48.30227" lon="6.78747">
        <ele>401.49</ele>
        <time>2018-01-29T15:13:31Z</time>
      </trkpt>
      <trkpt lat="48.30234" lon="6.78765">
        <ele>395.72</ele>
        <time>2018-01-29T15:13:46Z</time>
      </trkpt>
      <trkpt lat="48.30238" lon="6.78792">
        <ele>388.99</ele>
        <time>2018-01-29T15:14:02Z</time>
      </trkpt>
      <trkpt lat="48.30249" lon="6.78829">
        <ele>398.6</ele>
        <time>2018-01-29T15:14:20Z</time>
      </trkpt>
      <trkpt lat="48.30247" lon="6.78851">
        <ele>403.41</ele>
        <time>2018-01-29T15:14:33Z</time>
      </trkpt>
      <trkpt lat="48.30247" lon="6.78854">
        <ele>403.41</ele>
        <time>2018-01-29T15:14:35Z</time>
      </trkpt>
      <trkpt lat="48.30246" lon="6.7886">
        <ele>404.85</ele>
        <time>2018-01-29T15:14:39Z</time>
      </trkpt>
      <trkpt lat="48.30243" lon="6.78879">
        <ele>406.29</ele>
        <time>2018-01-29T15:14:54Z</time>
      </trkpt>
      <trkpt lat="48.30237" lon="6.78906">
        <ele>410.62</ele>
        <time>2018-01-29T15:15:07Z</time>
      </trkpt>
      <trkpt lat="48.30235" lon="6.78927">
        <ele>411.1</ele>
        <time>2018-01-29T15:15:22Z</time>
      </trkpt>
      <trkpt lat="48.30237" lon="6.78948">
        <ele>411.1</ele>
        <time>2018-01-29T15:15:34Z</time>
      </trkpt>
      <trkpt lat="48.30244" lon="6.78973">
        <ele>410.62</ele>
        <time>2018-01-29T15:15:51Z</time>
      </trkpt>
      <trkpt lat="48.30254" lon="6.79004">
        <ele>411.1</ele>
        <time>2018-01-29T15:16:10Z</time>
      </trkpt>
      <trkpt lat="48.30257" lon="6.79019">
        <ele>408.22</ele>
        <time>2018-01-29T15:16:21Z</time>
      </trkpt>
      <trkpt lat="48.30264" lon="6.79043">
        <ele>404.37</ele>
        <time>2018-01-29T15:16:37Z</time>
      </trkpt>
      <trkpt lat="48.30268" lon="6.79067">
        <ele>404.85</ele>
        <time>2018-01-29T15:16:52Z</time>
      </trkpt>
      <trkpt lat="48.30275" lon="6.79093">
        <ele>404.85</ele>
        <time>2018-01-29T15:17:09Z</time>
      </trkpt>
      <trkpt lat="48.30275" lon="6.791">
        <ele>404.85</ele>
        <time>2018-01-29T15:17:13Z</time>
      </trkpt>
      <trkpt lat="48.30277" lon="6.79108">
        <ele>406.29</ele>
        <time>2018-01-29T15:17:17Z</time>
      </trkpt>
      <trkpt lat="48.30279" lon="6.79113">
        <ele>406.77</ele>
        <time>2018-01-29T15:17:21Z</time>
      </trkpt>
      <trkpt lat="48.30288" lon="6.79132">
        <ele>407.74</ele>
        <time>2018-01-29T15:17:36Z</time>
      </trkpt>
      <trkpt lat="48.30298" lon="6.79174">
        <ele>409.18</ele>
        <time>2018-01-29T15:17:56Z</time>
      </trkpt>
      <trkpt lat="48.30298" lon="6.79212">
        <ele>409.66</ele>
        <time>2018-01-29T15:18:18Z</time>
      </trkpt>
      <trkpt lat="48.30295" lon="6.79225">
        <ele>412.06</ele>
        <time>2018-01-29T15:18:26Z</time>
      </trkpt>
      <trkpt lat="48.30294" lon="6.79251">
        <ele>411.58</ele>
        <time>2018-01-29T15:18:44Z</time>
      </trkpt>
      <trkpt lat="48.30291" lon="6.79274">
        <ele>407.26</ele>
        <time>2018-01-29T15:19:00Z</time>
      </trkpt>
      <trkpt lat="48.30284" lon="6.79297">
        <ele>399.57</ele>
        <time>2018-01-29T15:19:17Z</time>
      </trkpt>
      <trkpt lat="48.30274" lon="6.7933">
        <ele>395.72</ele>
        <time>2018-01-29T15:19:36Z</time>
      </trkpt>
      <trkpt lat="48.3027" lon="6.79337">
        <ele>391.87</ele>
        <time>2018-01-29T15:19:43Z</time>
      </trkpt>
      <trkpt lat="48.30259" lon="6.79373">
        <ele>400.05</ele>
        <time>2018-01-29T15:20:01Z</time>
      </trkpt>
      <trkpt lat="48.30257" lon="6.79381">
        <ele>401.49</ele>
        <time>2018-01-29T15:20:06Z</time>
      </trkpt>
      <trkpt lat="48.30257" lon="6.79385">
        <ele>403.89</ele>
        <time>2018-01-29T15:20:09Z</time>
      </trkpt>
      <trkpt lat="48.30254" lon="6.79412">
        <ele>409.18</ele>
        <time>2018-01-29T15:20:24Z</time>
      </trkpt>
      <trkpt lat="48.30253" lon="6.79441">
        <ele>409.18</ele>
        <time>2018-01-29T15:20:40Z</time>
      </trkpt>
      <trkpt lat="48.30253" lon="6.79476">
        <ele>411.1</ele>
        <time>2018-01-29T15:20:59Z</time>
      </trkpt>
      <trkpt lat="48.30255" lon="6.79497">
        <ele>411.58</ele>
        <time>2018-01-29T15:21:15Z</time>
      </trkpt>
      <trkpt lat="48.30264" lon="6.79529">
        <ele>412.54</ele>
        <time>2018-01-29T15:21:33Z</time>
      </trkpt>
      <trkpt lat="48.30271" lon="6.7956">
        <ele>413.02</ele>
        <time>2018-01-29T15:21:53Z</time>
      </trkpt>
      <trkpt lat="48.30277" lon="6.79594">
        <ele>412.54</ele>
        <time>2018-01-29T15:22:10Z</time>
      </trkpt>
      <trkpt lat="48.30279" lon="6.79604">
        <ele>412.06</ele>
        <time>2018-01-29T15:22:14Z</time>
      </trkpt>
      <trkpt lat="48.30283" lon="6.79636">
        <ele>409.18</ele>
        <time>2018-01-29T15:22:33Z</time>
      </trkpt>
      <trkpt lat="48.30286" lon="6.79649">
        <ele>408.7</ele>
        <time>2018-01-29T15:22:41Z</time>
      </trkpt>
      <trkpt lat="48.3029" lon="6.79668">
        <ele>407.74</ele>
        <time>2018-01-29T15:22:54Z</time>
      </trkpt>
      <trkpt lat="48.30293" lon="6.7968">
        <ele>407.26</ele>
        <time>2018-01-29T15:23:02Z</time>
      </trkpt>
      <trkpt lat="48.30299" lon="6.79705">
        <ele>407.74</ele>
        <time>2018-01-29T15:23:19Z</time>
      </trkpt>
      <trkpt lat="48.30305" lon="6.79733">
        <ele>407.74</ele>
        <time>2018-01-29T15:23:37Z</time>
      </trkpt>
      <trkpt lat="48.3031" lon="6.79769">
        <ele>405.33</ele>
        <time>2018-01-29T15:23:59Z</time>
      </trkpt>
      <trkpt lat="48.30308" lon="6.79791">
        <ele>402.45</ele>
        <time>2018-01-29T15:24:16Z</time>
      </trkpt>
      <trkpt lat="48.3031" lon="6.79801">
        <ele>401.97</ele>
        <time>2018-01-29T15:24:22Z</time>
      </trkpt>
      <trkpt lat="48.30308" lon="6.79826">
        <ele>400.53</ele>
        <time>2018-01-29T15:24:39Z</time>
      </trkpt>
      <trkpt lat="48.30305" lon="6.79857">
        <ele>400.05</ele>
        <time>2018-01-29T15:24:57Z</time>
      </trkpt>
      <trkpt lat="48.30304" lon="6.79899">
        <ele>398.6</ele>
        <time>2018-01-29T15:25:21Z</time>
      </trkpt>
      <trkpt lat="48.30308" lon="6.79937">
        <ele>396.68</ele>
        <time>2018-01-29T15:25:41Z</time>
      </trkpt>
      <trkpt lat="48.30314" lon="6.79966">
        <ele>395.24</ele>
        <time>2018-01-29T15:26:00Z</time>
      </trkpt>
      <trkpt lat="48.30322" lon="6.79994">
        <ele>398.12</ele>
        <time>2018-01-29T15:26:18Z</time>
      </trkpt>
      <trkpt lat="48.3033" lon="6.80014">
        <ele>398.6</ele>
        <time>2018-01-29T15:26:34Z</time>
      </trkpt>
      <trkpt lat="48.30333" lon="6.80018">
        <ele>398.6</ele>
        <time>2018-01-29T15:26:38Z</time>
      </trkpt>
      <trkpt lat="48.3034" lon="6.80035">
        <ele>391.87</ele>
        <time>2018-01-29T15:26:55Z</time>
      </trkpt>
      <trkpt lat="48.30346" lon="6.80051">
        <ele>388.99</ele>
        <time>2018-01-29T15:27:07Z</time>
      </trkpt>
      <trkpt lat="48.30346" lon="6.80053">
        <ele>390.43</ele>
        <time>2018-01-29T15:27:08Z</time>
      </trkpt>
      <trkpt lat="48.3035" lon="6.80068">
        <ele>392.36</ele>
        <time>2018-01-29T15:27:20Z</time>
      </trkpt>
      <trkpt lat="48.30353" lon="6.80089">
        <ele>391.87</ele>
        <time>2018-01-29T15:27:34Z</time>
      </trkpt>
      <trkpt lat="48.3035" lon="6.80099">
        <ele>397.16</ele>
        <time>2018-01-29T15:27:43Z</time>
      </trkpt>
      <trkpt lat="48.3035" lon="6.80099">
        <ele>397.16</ele>
        <time>2018-01-29T15:27:58Z</time>
      </trkpt>
      <trkpt lat="48.30348" lon="6.801">
        <ele>398.12</ele>
        <time>2018-01-29T15:28:13Z</time>
      </trkpt>
    </trkseg>
  </trk>
</gpx>